Wetterdaten: Dienstag, 21.04.2020
Datum Zeit Temp. Aussen Temp. o. S. Temp +5cm Feuchte Auss Luftdruck Regen Sonnenschein Regendauer Solar Windben Empfang
21.04.2020 00:00 11,1 C 10,0 C 8,9 C 58 % 1018,4 hPa 0,0 l/m 0 min 0 min 0 W/m 0,0 km/h (0 Bft) 97,87 %
21.04.2020 00:02 11,0 C 10,0 C 8,9 C 58 % 1018,4 hPa 0,0 l/m 0 min 0 min 0 W/m 0,0 km/h (0 Bft) 91,89 %
21.04.2020 00:04 11,0 C 10,0 C 8,9 C 58 % 1018,4 hPa 0,0 l/m 0 min 0 min 0 W/m 0,0 km/h (0 Bft) 95,74 %
21.04.2020 00:08 10,9 C 10,0 C 8,9 C 58 % 1018,5 hPa 0,0 l/m 0 min 0 min 0 W/m 6,4 km/h (2 Bft) 95,74 %
21.04.2020 00:10 10,9 C 10,0 C 8,9 C 58 % 1018,5 hPa 0,0 l/m 0 min 0 min 0 W/m 6,4 km/h (2 Bft) 95,74 %
21.04.2020 00:12 10,9 C 9,4 C 8,9 C 58 % 1018,5 hPa 0,0 l/m 0 min 0 min 0 W/m 9,7 km/h (2 Bft) 97,83 %
21.04.2020 00:14 10,9 C 9,4 C 8,9 C 58 % 1018,5 hPa 0,0 l/m 0 min 0 min 0 W/m 9,7 km/h (2 Bft) 97,87 %
21.04.2020 00:16 10,8 C 9,4 C 8,9 C 58 % 1018,5 hPa 0,0 l/m 0 min 0 min 0 W/m 9,7 km/h (2 Bft) 97,87 %
21.04.2020 00:18 10,8 C 9,4 C 8,9 C 58 % 1018,5 hPa 0,0 l/m 0 min 0 min 0 W/m 3,2 km/h (1 Bft) 97,87 %
21.04.2020 00:20 10,8 C 9,4 C 8,9 C 58 % 1018,5 hPa 0,0 l/m 0 min 0 min 0 W/m 9,7 km/h (2 Bft) 95,74 %
21.04.2020 00:22 10,8 C 9,4 C 8,9 C 58 % 1018,5 hPa 0,0 l/m 0 min 0 min 0 W/m 0,0 km/h (0 Bft) 97,87 %
21.04.2020 00:24 10,7 C 9,4 C 8,9 C 58 % 1018,5 hPa 0,0 l/m 0 min 0 min 0 W/m 0,0 km/h (0 Bft) 97,83 %
21.04.2020 00:26 10,7 C 9,4 C 8,9 C 59 % 1018,5 hPa 0,0 l/m 0 min 0 min 0 W/m 3,2 km/h (1 Bft) 95,74 %
21.04.2020 00:28 10,7 C 9,4 C 8,3 C 59 % 1018,5 hPa 0,0 l/m 0 min 0 min 0 W/m 0,0 km/h (0 Bft) 97,87 %
21.04.2020 00:30 10,7 C 8,9 C 8,3 C 59 % 1018,5 hPa 0,0 l/m 0 min 0 min 0 W/m 0,0 km/h (0 Bft) 100,00 %
21.04.2020 00:32 10,6 C 8,9 C 8,3 C 59 % 1018,5 hPa 0,0 l/m 0 min 0 min 0 W/m 0,0 km/h (0 Bft) 100,00 %
21.04.2020 00:34 10,6 C 8,9 C 8,3 C 59 % 1018,5 hPa 0,0 l/m 0 min 0 min 0 W/m 0,0 km/h (0 Bft) 100,00 %
21.04.2020 00:36 10,6 C 8,9 C 8,3 C 59 % 1018,5 hPa 0,0 l/m 0 min 0 min 0 W/m 0,0 km/h (0 Bft) 100,00 %
21.04.2020 00:38 10,5 C 8,9 C 8,3 C 59 % 1018,6 hPa 0,0 l/m 0 min 0 min 0 W/m 0,0 km/h (0 Bft) 100,00 %
21.04.2020 00:40 10,4 C 8,9 C 7,8 C 59 % 1018,6 hPa 0,0 l/m 0 min 0 min 0 W/m 0,0 km/h (0 Bft) 100,00 %
21.04.2020 00:42 10,4 C 8,3 C 7,8 C 59 % 1018,5 hPa 0,0 l/m 0 min 0 min 0 W/m 0,0 km/h (0 Bft) 100,00 %
21.04.2020 00:44 10,3 C 8,3 C 7,8 C 59 % 1018,6 hPa 0,0 l/m 0 min 0 min 0 W/m 0,0 km/h (0 Bft) 100,00 %
21.04.2020 00:46 10,3 C 8,3 C 7,8 C 60 % 1018,6 hPa 0,0 l/m 0 min 0 min 0 W/m 6,4 km/h (2 Bft) 100,00 %
21.04.2020 00:48 10,3 C 8,3 C 7,8 C 60 % 1018,6 hPa 0,0 l/m 0 min 0 min 0 W/m 0,0 km/h (0 Bft) 100,00 %
21.04.2020 00:50 10,2 C 8,3 C 7,8 C 60 % 1018,6 hPa 0,0 l/m 0 min 0 min 0 W/m 6,4 km/h (2 Bft) 97,87 %
21.04.2020 00:52 10,1 C 8,3 C 7,8 C 60 % 1018,5 hPa 0,0 l/m 0 min 0 min 0 W/m 6,4 km/h (2 Bft) 100,00 %
21.04.2020 00:54 10,1 C 8,3 C 7,8 C 60 % 1018,5 hPa 0,0 l/m 0 min 0 min 0 W/m 0,0 km/h (0 Bft) 100,00 %
21.04.2020 00:56 10,1 C 8,3 C 7,8 C 60 % 1018,6 hPa 0,0 l/m 0 min 0 min 0 W/m 0,0 km/h (0 Bft) 100,00 %
21.04.2020 00:58 10,0 C 8,3 C 7,8 C 61 % 1018,6 hPa 0,0 l/m 0 min 0 min 0 W/m 0,0 km/h (0 Bft) 100,00 %
21.04.2020 01:00 9,9 C 8,3 C 7,8 C 61 % 1018,6 hPa 0,0 l/m 0 min 0 min 0 W/m 0,0 km/h (0 Bft) 100,00 %
21.04.2020 01:02 9,9 C 8,3 C 7,8 C 61 % 1018,5 hPa 0,0 l/m 0 min 0 min 0 W/m 0,0 km/h (0 Bft) 100,00 %
21.04.2020 01:04 9,9 C 8,3 C 7,8 C 61 % 1018,6 hPa 0,0 l/m 0 min 0 min 0 W/m 0,0 km/h (0 Bft) 100,00 %
21.04.2020 01:06 9,8 C 8,3 C 7,8 C 61 % 1018,6 hPa 0,0 l/m 0 min 0 min 0 W/m 0,0 km/h (0 Bft) 97,83 %
21.04.2020 01:08 9,8 C 7,8 C 7,2 C 61 % 1018,6 hPa 0,0 l/m 0 min 0 min 0 W/m 0,0 km/h (0 Bft) 100,00 %
21.04.2020 01:10 9,7 C 7,8 C 7,2 C 61 % 1018,5 hPa 0,0 l/m 0 min 0 min 0 W/m 0,0 km/h (0 Bft) 100,00 %
21.04.2020 01:12 9,7 C 7,8 C 7,2 C 61 % 1018,5 hPa 0,0 l/m 0 min 0 min 0 W/m 6,4 km/h (2 Bft) 100,00 %
21.04.2020 01:14 9,6 C 7,8 C 7,2 C 61 % 1018,5 hPa 0,0 l/m 0 min 0 min 0 W/m 6,4 km/h (2 Bft) 97,87 %
21.04.2020 01:16 9,6 C 7,8 C 7,2 C 62 % 1018,5 hPa 0,0 l/m 0 min 0 min 0 W/m 6,4 km/h (2 Bft) 100,00 %
21.04.2020 01:18 9,6 C 7,8 C 7,2 C 62 % 1018,4 hPa 0,0 l/m 0 min 0 min 0 W/m 3,2 km/h (1 Bft) 100,00 %
21.04.2020 01:20 9,5 C 7,8 C 7,2 C 62 % 1018,4 hPa 0,0 l/m 0 min 0 min 0 W/m 6,4 km/h (2 Bft) 97,87 %
21.04.2020 01:22 9,4 C 7,8 C 7,2 C 62 % 1018,3 hPa 0,0 l/m 0 min 0 min 0 W/m 3,2 km/h (1 Bft) 97,87 %
21.04.2020 01:24 9,4 C 7,8 C 7,2 C 62 % 1018,3 hPa 0,0 l/m 0 min 0 min 0 W/m 0,0 km/h (0 Bft) 100,00 %
21.04.2020 01:26 9,3 C 7,8 C 7,2 C 62 % 1018,3 hPa 0,0 l/m 0 min 0 min 0 W/m 0,0 km/h (0 Bft) 100,00 %
21.04.2020 01:28 9,3 C 7,8 C 7,2 C 62 % 1018,3 hPa 0,0 l/m 0 min 0 min 0 W/m 0,0 km/h (0 Bft) 97,87 %
21.04.2020 01:30 9,3 C 7,8 C 7,2 C 62 % 1018,2 hPa 0,0 l/m 0 min 0 min 0 W/m 0,0 km/h (0 Bft) 97,83 %
21.04.2020 01:32 9,3 C 7,8 C 7,2 C 62 % 1018,3 hPa 0,0 l/m 0 min 0 min 0 W/m 3,2 km/h (1 Bft) 95,74 %
21.04.2020 01:34 9,2 C 7,8 C 7,2 C 62 % 1018,3 hPa 0,0 l/m 0 min 0 min 0 W/m 6,4 km/h (2 Bft) 93,62 %
21.04.2020 01:36 9,2 C 7,8 C 7,2 C 62 % 1018,2 hPa 0,0 l/m 0 min 0 min 0 W/m 6,4 km/h (2 Bft) 97,87 %
21.04.2020 01:38 9,2 C 7,8 C 7,2 C 63 % 1018,2 hPa 0,0 l/m 0 min 0 min 0 W/m 12,9 km/h (3 Bft) 97,87 %
21.04.2020 01:40 9,1 C 7,8 C 7,2 C 63 % 1018,3 hPa 0,0 l/m 0 min 0 min 0 W/m 3,2 km/h (1 Bft) 95,74 %
21.04.2020 01:42 9,1 C 7,8 C 7,2 C 63 % 1018,2 hPa 0,0 l/m 0 min 0 min 0 W/m 9,7 km/h (2 Bft) 97,83 %
21.04.2020 01:44 9,1 C 7,8 C 7,2 C 63 % 1018,2 hPa 0,0 l/m 0 min 0 min 0 W/m 6,4 km/h (2 Bft) 97,87 %
21.04.2020 01:46 9,1 C 7,8 C 7,2 C 63 % 1018,2 hPa 0,0 l/m 0 min 0 min 0 W/m 6,4 km/h (2 Bft) 97,87 %
21.04.2020 01:51 9,0 C 7,8 C 7,2 C 63 % 1018,1 hPa 0,0 l/m 0 min 0 min 0 W/m 9,7 km/h (2 Bft) 95,38 %
21.04.2020 01:52 9,0 C 7,8 C 7,2 C 63 % 1018,1 hPa 0,0 l/m 0 min 0 min 0 W/m 0,0 km/h (0 Bft) 100,00 %
21.04.2020 01:54 9,0 C 7,8 C 7,2 C 63 % 1018,1 hPa 0,0 l/m 0 min 0 min 0 W/m 0,0 km/h (0 Bft) 97,87 %
21.04.2020 01:56 9,0 C 7,8 C 7,2 C 63 % 1018,1 hPa 0,0 l/m 0 min 0 min 0 W/m 6,4 km/h (2 Bft) 97,87 %
21.04.2020 01:58 8,9 C 7,8 C 7,2 C 63 % 1018,0 hPa 0,0 l/m 0 min 0 min 0 W/m 9,7 km/h (2 Bft) 95,74 %
21.04.2020 02:00 8,9 C 7,8 C 7,2 C 63 % 1018,0 hPa 0,0 l/m 0 min 0 min 0 W/m 9,7 km/h (2 Bft) 95,74 %
21.04.2020 02:02 8,9 C 7,8 C 7,2 C 63 % 1018,0 hPa 0,0 l/m 0 min 0 min 0 W/m 6,4 km/h (2 Bft) 91,49 %
21.04.2020 02:04 8,9 C 7,8 C 7,2 C 63 % 1018,0 hPa 0,0 l/m 0 min 0 min 0 W/m 9,7 km/h (2 Bft) 95,65 %
21.04.2020 02:06 8,9 C 7,8 C 7,2 C 63 % 1018,0 hPa 0,0 l/m 0 min 0 min 0 W/m 9,7 km/h (2 Bft) 93,62 %
21.04.2020 02:10 8,9 C 7,8 C 7,2 C 62 % 1018,0 hPa 0,0 l/m 0 min 0 min 0 W/m 6,4 km/h (2 Bft) 93,75 %
21.04.2020 02:12 8,9 C 7,8 C 7,2 C 63 % 1018,0 hPa 0,0 l/m 0 min 0 min 0 W/m 6,4 km/h (2 Bft) 97,87 %
21.04.2020 02:14 8,9 C 7,8 C 7,2 C 63 % 1017,9 hPa 0,0 l/m 0 min 0 min 0 W/m 0,0 km/h (0 Bft) 100,00 %
21.04.2020 02:16 8,8 C 7,8 C 7,2 C 62 % 1018,0 hPa 0,0 l/m 0 min 0 min 0 W/m 0,0 km/h (0 Bft) 95,74 %
21.04.2020 02:18 8,8 C 7,8 C 7,2 C 62 % 1018,0 hPa 0,0 l/m 0 min 0 min 0 W/m 0,0 km/h (0 Bft) 97,87 %
21.04.2020 02:20 8,8 C 7,8 C 7,2 C 62 % 1018,0 hPa 0,0 l/m 0 min 0 min 0 W/m 9,7 km/h (2 Bft) 97,87 %
21.04.2020 02:22 8,8 C 7,8 C 7,2 C 62 % 1018,0 hPa 0,0 l/m 0 min 0 min 0 W/m 3,2 km/h (1 Bft) 97,83 %
21.04.2020 02:24 8,8 C 7,8 C 7,2 C 63 % 1017,9 hPa 0,0 l/m 0 min 0 min 0 W/m 3,2 km/h (1 Bft) 97,87 %
21.04.2020 02:26 8,8 C 7,8 C 7,2 C 63 % 1017,9 hPa 0,0 l/m 0 min 0 min 0 W/m 0,0 km/h (0 Bft) 95,74 %
21.04.2020 02:28 8,8 C 7,8 C 7,2 C 63 % 1017,9 hPa 0,0 l/m 0 min 0 min 0 W/m 9,7 km/h (2 Bft) 95,74 %
21.04.2020 02:30 8,8 C 7,8 C 7,2 C 62 % 1017,9 hPa 0,0 l/m 0 min 0 min 0 W/m 9,7 km/h (2 Bft) 97,87 %
21.04.2020 02:32 8,8 C 7,8 C 7,2 C 63 % 1017,9 hPa 0,0 l/m 0 min 0 min 0 W/m 3,2 km/h (1 Bft) 97,83 %
21.04.2020 02:34 8,8 C 7,8 C 7,2 C 63 % 1017,9 hPa 0,0 l/m 0 min 0 min 0 W/m 3,2 km/h (1 Bft) 97,87 %
21.04.2020 02:36 8,8 C 7,8 C 7,2 C 63 % 1017,9 hPa 0,0 l/m 0 min 0 min 0 W/m 0,0 km/h (0 Bft) 97,87 %
21.04.2020 02:38 8,8 C 7,8 C 7,2 C 63 % 1017,9 hPa 0,0 l/m 0 min 0 min 0 W/m 0,0 km/h (0 Bft) 97,87 %
21.04.2020 02:40 8,8 C 7,8 C 7,2 C 63 % 1017,9 hPa 0,0 l/m 0 min 0 min 0 W/m 0,0 km/h (0 Bft) 97,87 %
21.04.2020 02:42 8,7 C 7,8 C 7,2 C 63 % 1017,9 hPa 0,0 l/m 0 min 0 min 0 W/m 9,7 km/h (2 Bft) 97,87 %
21.04.2020 02:44 8,7 C 7,8 C 7,2 C 63 % 1017,9 hPa 0,0 l/m 0 min 0 min 0 W/m 6,4 km/h (2 Bft) 97,83 %
21.04.2020 02:46 8,7 C 7,8 C 7,2 C 63 % 1017,8 hPa 0,0 l/m 0 min 0 min 0 W/m 0,0 km/h (0 Bft) 95,74 %
21.04.2020 02:48 8,7 C 7,8 C 6,7 C 63 % 1017,8 hPa 0,0 l/m 0 min 0 min 0 W/m 9,7 km/h (2 Bft) 100,00 %
21.04.2020 02:50 8,7 C 7,8 C 7,2 C 63 % 1017,8 hPa 0,0 l/m 0 min 0 min 0 W/m 9,7 km/h (2 Bft) 100,00 %
21.04.2020 02:52 8,7 C 7,8 C 7,2 C 63 % 1017,8 hPa 0,0 l/m 0 min 0 min 0 W/m 9,7 km/h (2 Bft) 100,00 %
21.04.2020 02:54 8,7 C 7,8 C 7,2 C 63 % 1017,7 hPa 0,0 l/m 0 min 0 min 0 W/m 9,7 km/h (2 Bft) 97,87 %
21.04.2020 02:56 8,7 C 7,8 C 7,2 C 63 % 1017,7 hPa 0,0 l/m 0 min 0 min 0 W/m 6,4 km/h (2 Bft) 97,83 %
21.04.2020 02:58 8,6 C 7,8 C 7,2 C 63 % 1017,7 hPa 0,0 l/m 0 min 0 min 0 W/m 9,7 km/h (2 Bft) 100,00 %
21.04.2020 03:00 8,6 C 7,8 C 7,2 C 63 % 1017,7 hPa 0,0 l/m 0 min 0 min 0 W/m 9,7 km/h (2 Bft) 100,00 %
21.04.2020 03:02 8,6 C 7,8 C 6,7 C 63 % 1017,7 hPa 0,0 l/m 0 min 0 min 0 W/m 0,0 km/h (0 Bft) 97,87 %
21.04.2020 03:04 8,6 C 7,2 C 6,7 C 63 % 1017,7 hPa 0,0 l/m 0 min 0 min 0 W/m 0,0 km/h (0 Bft) 100,00 %
21.04.2020 03:06 8,6 C 7,2 C 6,7 C 63 % 1017,7 hPa 0,0 l/m 0 min 0 min 0 W/m 3,2 km/h (1 Bft) 100,00 %
21.04.2020 03:08 8,6 C 7,2 C 6,7 C 63 % 1017,7 hPa 0,0 l/m 0 min 0 min 0 W/m 3,2 km/h (1 Bft) 100,00 %
21.04.2020 03:10 8,6 C 7,2 C 6,7 C 63 % 1017,7 hPa 0,0 l/m 0 min 0 min 0 W/m 6,4 km/h (2 Bft) 100,00 %
21.04.2020 03:12 8,6 C 7,8 C 6,7 C 63 % 1017,6 hPa 0,0 l/m 0 min 0 min 0 W/m 9,7 km/h (2 Bft) 97,87 %
21.04.2020 03:14 8,6 C 7,8 C 6,7 C 63 % 1017,6 hPa 0,0 l/m 0 min 0 min 0 W/m 9,7 km/h (2 Bft) 100,00 %
21.04.2020 03:16 8,5 C 7,2 C 6,7 C 63 % 1017,6 hPa 0,0 l/m 0 min 0 min 0 W/m 9,7 km/h (2 Bft) 97,87 %
21.04.2020 03:18 8,5 C 7,2 C 6,7 C 63 % 1017,6 hPa 0,0 l/m 0 min 0 min 0 W/m 9,7 km/h (2 Bft) 97,87 %
21.04.2020 03:20 8,5 C 7,2 C 6,7 C 63 % 1017,6 hPa 0,0 l/m 0 min 0 min 0 W/m 9,7 km/h (2 Bft) 97,83 %
21.04.2020 03:22 8,5 C 7,2 C 6,7 C 63 % 1017,6 hPa 0,0 l/m 0 min 0 min 0 W/m 12,9 km/h (3 Bft) 93,62 %
21.04.2020 03:24 8,4 C 7,2 C 6,7 C 63 % 1017,5 hPa 0,0 l/m 0 min 0 min 0 W/m 6,4 km/h (2 Bft) 97,87 %
21.04.2020 03:26 8,4 C 7,8 C 6,7 C 63 % 1017,5 hPa 0,0 l/m 0 min 0 min 0 W/m 12,9 km/h (3 Bft) 97,87 %
21.04.2020 03:28 8,4 C 7,8 C 6,7 C 63 % 1017,5 hPa 0,0 l/m 0 min 0 min 0 W/m 9,7 km/h (2 Bft) 95,74 %
21.04.2020 03:30 8,4 C 7,2 C 6,7 C 63 % 1017,5 hPa 0,0 l/m 0 min 0 min 0 W/m 12,9 km/h (3 Bft) 93,48 %
21.04.2020 03:32 8,4 C 7,2 C 6,7 C 63 % 1017,5 hPa 0,0 l/m 0 min 0 min 0 W/m 3,2 km/h (1 Bft) 97,87 %
21.04.2020 03:34 8,4 C 7,2 C 6,7 C 63 % 1017,5 hPa 0,0 l/m 0 min 0 min 0 W/m 9,7 km/h (2 Bft) 97,87 %
21.04.2020 03:36 8,4 C 7,2 C 6,7 C 63 % 1017,6 hPa 0,0 l/m 0 min 0 min 0 W/m 9,7 km/h (2 Bft) 95,74 %
21.04.2020 03:38 8,4 C 7,2 C 6,7 C 63 % 1017,5 hPa 0,0 l/m 0 min 0 min 0 W/m 9,7 km/h (2 Bft) 45,95 %
21.04.2020 03:40 8,4 C 7,2 C 6,7 C 63 % 1017,5 hPa 0,0 l/m 0 min 0 min 0 W/m 0,0 km/h (0 Bft) 95,65 %
21.04.2020 03:42 8,4 C 7,2 C 6,7 C 63 % 1017,6 hPa 0,0 l/m 0 min 0 min 0 W/m 0,0 km/h (0 Bft) 97,83 %
21.04.2020 03:44 8,4 C 7,2 C 6,7 C 63 % 1017,6 hPa 0,0 l/m 0 min 0 min 0 W/m 0,0 km/h (0 Bft) 95,74 %
21.04.2020 03:46 8,3 C 7,2 C 6,7 C 63 % 1017,6 hPa 0,0 l/m 0 min 0 min 0 W/m 6,4 km/h (2 Bft) 95,74 %
21.04.2020 03:48 8,3 C 7,2 C 6,7 C 63 % 1017,6 hPa 0,0 l/m 0 min 0 min 0 W/m 6,4 km/h (2 Bft) 95,74 %
21.04.2020 03:50 8,3 C 7,2 C 6,7 C 63 % 1017,6 hPa 0,0 l/m 0 min 0 min 0 W/m 3,2 km/h (1 Bft) 93,62 %
21.04.2020 03:52 8,3 C 7,2 C 6,7 C 63 % 1017,6 hPa 0,0 l/m 0 min 0 min 0 W/m 9,7 km/h (2 Bft) 95,74 %
21.04.2020 03:54 8,3 C 7,2 C 6,7 C 63 % 1017,5 hPa 0,0 l/m 0 min 0 min 0 W/m 3,2 km/h (1 Bft) 95,65 %
21.04.2020 03:56 8,3 C 7,2 C 6,7 C 63 % 1017,6 hPa 0,0 l/m 0 min 0 min 0 W/m 3,2 km/h (1 Bft) 95,74 %
21.04.2020 03:58 8,3 C 7,2 C 6,7 C 63 % 1017,5 hPa 0,0 l/m 0 min 0 min 0 W/m 6,4 km/h (2 Bft) 95,74 %
21.04.2020 04:00 8,3 C 7,2 C 6,7 C 63 % 1017,5 hPa 0,0 l/m 0 min 0 min 0 W/m 3,2 km/h (1 Bft) 95,74 %
21.04.2020 04:02 8,3 C 7,2 C 6,7 C 63 % 1017,5 hPa 0,0 l/m 0 min 0 min 0 W/m 6,4 km/h (2 Bft) 100,00 %
21.04.2020 04:04 8,3 C 7,2 C 6,7 C 63 % 1017,5 hPa 0,0 l/m 0 min 0 min 0 W/m 16,1 km/h (3 Bft) 97,87 %
21.04.2020 04:06 8,2 C 7,2 C 6,7 C 63 % 1017,6 hPa 0,0 l/m 0 min 0 min 0 W/m 22,5 km/h (4 Bft) 95,65 %
21.04.2020 04:08 8,2 C 7,2 C 6,7 C 63 % 1017,6 hPa 0,0 l/m 0 min 0 min 0 W/m 6,4 km/h (2 Bft) 95,74 %
21.04.2020 04:10 8,2 C 7,2 C 6,7 C 64 % 1017,6 hPa 0,0 l/m 0 min 0 min 0 W/m 0,0 km/h (0 Bft) 95,74 %
21.04.2020 04:12 8,2 C 7,2 C 6,7 C 64 % 1017,6 hPa 0,0 l/m 0 min 0 min 0 W/m 0,0 km/h (0 Bft) 93,62 %
21.04.2020 04:14 8,2 C 7,2 C 6,7 C 64 % 1017,6 hPa 0,0 l/m 0 min 0 min 0 W/m 6,4 km/h (2 Bft) 93,62 %
21.04.2020 04:16 8,2 C 7,2 C 6,7 C 64 % 1017,7 hPa 0,0 l/m 0 min 0 min 0 W/m 12,9 km/h (3 Bft) 95,65 %
21.04.2020 04:18 8,2 C 7,2 C 6,7 C 64 % 1017,6 hPa 0,0 l/m 0 min 0 min 0 W/m 3,2 km/h (1 Bft) 97,87 %
21.04.2020 04:20 8,2 C 7,2 C 6,7 C 64 % 1017,6 hPa 0,0 l/m 0 min 0 min 0 W/m 6,4 km/h (2 Bft) 97,87 %
21.04.2020 04:22 8,2 C 7,2 C 6,7 C 64 % 1017,6 hPa 0,0 l/m 0 min 0 min 0 W/m 12,9 km/h (3 Bft) 97,87 %
21.04.2020 04:24 8,2 C 7,2 C 6,7 C 64 % 1017,6 hPa 0,0 l/m 0 min 0 min 0 W/m 6,4 km/h (2 Bft) 100,00 %
21.04.2020 04:26 8,2 C 7,2 C 6,7 C 64 % 1017,5 hPa 0,0 l/m 0 min 0 min 0 W/m 0,0 km/h (0 Bft) 100,00 %
21.04.2020 04:28 8,1 C 7,2 C 6,7 C 64 % 1017,5 hPa 0,0 l/m 0 min 0 min 0 W/m 22,5 km/h (4 Bft) 97,83 %
21.04.2020 04:30 8,1 C 7,2 C 6,7 C 64 % 1017,5 hPa 0,0 l/m 0 min 0 min 0 W/m 3,2 km/h (1 Bft) 100,00 %
21.04.2020 04:32 8,1 C 7,2 C 6,7 C 64 % 1017,5 hPa 0,0 l/m 0 min 0 min 0 W/m 12,9 km/h (3 Bft) 100,00 %
21.04.2020 04:34 8,1 C 7,2 C 6,7 C 64 % 1017,5 hPa 0,0 l/m 0 min 0 min 0 W/m 9,7 km/h (2 Bft) 100,00 %
21.04.2020 04:36 8,1 C 7,2 C 6,7 C 64 % 1017,6 hPa 0,0 l/m 0 min 0 min 0 W/m 16,1 km/h (3 Bft) 100,00 %
21.04.2020 04:38 8,1 C 7,2 C 6,7 C 64 % 1017,5 hPa 0,0 l/m 0 min 0 min 0 W/m 9,7 km/h (2 Bft) 100,00 %
21.04.2020 04:40 8,1 C 7,2 C 6,7 C 64 % 1017,6 hPa 0,0 l/m 0 min 0 min 0 W/m 12,9 km/h (3 Bft) 100,00 %
21.04.2020 04:42 8,2 C 7,2 C 6,7 C 64 % 1017,5 hPa 0,0 l/m 0 min 0 min 0 W/m 16,1 km/h (3 Bft) 100,00 %
21.04.2020 04:44 8,2 C 7,2 C 6,7 C 64 % 1017,6 hPa 0,0 l/m 0 min 0 min 0 W/m 16,1 km/h (3 Bft) 97,87 %
21.04.2020 04:46 8,2 C 7,2 C 6,7 C 64 % 1017,5 hPa 0,0 l/m 0 min 0 min 0 W/m 12,9 km/h (3 Bft) 93,62 %
21.04.2020 04:48 8,2 C 7,2 C 6,7 C 64 % 1017,6 hPa 0,0 l/m 0 min 0 min 0 W/m 9,7 km/h (2 Bft) 97,87 %
21.04.2020 04:50 8,2 C 7,2 C 6,7 C 64 % 1017,6 hPa 0,0 l/m 0 min 0 min 0 W/m 16,1 km/h (3 Bft) 97,87 %
21.04.2020 04:52 8,2 C 7,2 C 6,7 C 64 % 1017,5 hPa 0,0 l/m 0 min 0 min 0 W/m 16,1 km/h (3 Bft) 95,65 %
21.04.2020 04:54 8,2 C 7,2 C 6,7 C 64 % 1017,5 hPa 0,0 l/m 0 min 0 min 0 W/m 0,0 km/h (0 Bft) 97,87 %
21.04.2020 04:56 8,2 C 7,2 C 6,7 C 64 % 1017,5 hPa 0,0 l/m 0 min 0 min 0 W/m 12,9 km/h (3 Bft) 97,87 %
21.04.2020 04:58 8,2 C 7,2 C 6,7 C 64 % 1017,5 hPa 0,0 l/m 0 min 0 min 0 W/m 16,1 km/h (3 Bft) 97,87 %
21.04.2020 05:00 8,1 C 7,2 C 6,7 C 64 % 1017,6 hPa 0,0 l/m 0 min 0 min 0 W/m 9,7 km/h (2 Bft) 91,49 %
21.04.2020 05:02 8,1 C 7,2 C 6,7 C 64 % 1017,6 hPa 0,0 l/m 0 min 0 min 0 W/m 6,4 km/h (2 Bft) 58,54 %
21.04.2020 05:04 8,1 C 7,2 C 6,7 C 64 % 1017,6 hPa 0,0 l/m 0 min 0 min 0 W/m 9,7 km/h (2 Bft) 95,65 %
21.04.2020 05:06 8,1 C 7,2 C 6,7 C 64 % 1017,6 hPa 0,0 l/m 0 min 0 min 0 W/m 12,9 km/h (3 Bft) 97,87 %
21.04.2020 05:08 8,1 C 7,2 C 6,1 C 64 % 1017,6 hPa 0,0 l/m 0 min 0 min 0 W/m 6,4 km/h (2 Bft) 97,87 %
21.04.2020 05:10 8,1 C 7,2 C 6,7 C 64 % 1017,6 hPa 0,0 l/m 0 min 0 min 0 W/m 6,4 km/h (2 Bft) 97,87 %
21.04.2020 05:12 8,1 C 7,2 C 6,7 C 64 % 1017,6 hPa 0,0 l/m 0 min 0 min 0 W/m 16,1 km/h (3 Bft) 95,74 %
21.04.2020 05:14 8,0 C 7,2 C 6,7 C 64 % 1017,6 hPa 0,0 l/m 0 min 0 min 0 W/m 0,0 km/h (0 Bft) 97,87 %
21.04.2020 05:16 8,0 C 6,7 C 6,1 C 64 % 1017,6 hPa 0,0 l/m 0 min 0 min 0 W/m 0,0 km/h (0 Bft) 97,83 %
21.04.2020 05:18 8,0 C 6,7 C 6,1 C 64 % 1017,6 hPa 0,0 l/m 0 min 0 min 0 W/m 0,0 km/h (0 Bft) 97,87 %
21.04.2020 05:20 8,0 C 6,7 C 6,1 C 64 % 1017,6 hPa 0,0 l/m 0 min 0 min 0 W/m 6,4 km/h (2 Bft) 97,87 %
21.04.2020 05:22 7,9 C 6,7 C 6,1 C 65 % 1017,6 hPa 0,0 l/m 0 min 0 min 0 W/m 6,4 km/h (2 Bft) 95,74 %
21.04.2020 05:24 7,9 C 6,7 C 6,1 C 65 % 1017,6 hPa 0,0 l/m 0 min 0 min 0 W/m 6,4 km/h (2 Bft) 97,87 %
21.04.2020 05:26 7,9 C 6,7 C 6,1 C 65 % 1017,6 hPa 0,0 l/m 0 min 0 min 0 W/m 9,7 km/h (2 Bft) 95,65 %
21.04.2020 05:28 7,9 C 6,7 C 6,1 C 65 % 1017,7 hPa 0,0 l/m 0 min 0 min 0 W/m 9,7 km/h (2 Bft) 95,74 %
21.04.2020 05:30 7,9 C 6,7 C 6,1 C 65 % 1017,6 hPa 0,0 l/m 0 min 0 min 0 W/m 9,7 km/h (2 Bft) 100,00 %
21.04.2020 05:32 7,8 C 6,7 C 6,1 C 65 % 1017,6 hPa 0,0 l/m 0 min 0 min 0 W/m 0,0 km/h (0 Bft) 97,87 %
21.04.2020 05:34 7,8 C 6,7 C 6,1 C 65 % 1017,6 hPa 0,0 l/m 0 min 0 min 0 W/m 0,0 km/h (0 Bft) 100,00 %
21.04.2020 05:36 7,8 C 6,7 C 6,1 C 65 % 1017,6 hPa 0,0 l/m 0 min 0 min 0 W/m 0,0 km/h (0 Bft) 97,87 %
21.04.2020 05:38 7,8 C 6,7 C 6,1 C 65 % 1017,5 hPa 0,0 l/m 0 min 0 min 0 W/m 0,0 km/h (0 Bft) 100,00 %
21.04.2020 05:40 7,8 C 6,7 C 6,1 C 65 % 1017,5 hPa 0,0 l/m 0 min 0 min 0 W/m 0,0 km/h (0 Bft) 97,87 %
21.04.2020 05:42 7,8 C 6,7 C 6,1 C 65 % 1017,5 hPa 0,0 l/m 0 min 0 min 0 W/m 0,0 km/h (0 Bft) 97,87 %
21.04.2020 05:44 7,8 C 6,7 C 6,1 C 65 % 1017,5 hPa 0,0 l/m 0 min 0 min 0 W/m 9,7 km/h (2 Bft) 97,87 %
21.04.2020 05:46 7,7 C 6,7 C 6,1 C 65 % 1017,6 hPa 0,0 l/m 0 min 0 min 0 W/m 0,0 km/h (0 Bft) 100,00 %
21.04.2020 05:49 7,7 C 6,7 C 6,1 C 65 % 1017,5 hPa 0,0 l/m 0 min 0 min 0 W/m 12,9 km/h (3 Bft) 98,78 %
21.04.2020 05:50 7,7 C 6,7 C 6,1 C 65 % 1017,5 hPa 0,0 l/m 0 min 0 min 0 W/m 9,7 km/h (2 Bft) 100,00 %
21.04.2020 05:52 7,7 C 6,7 C 6,1 C 65 % 1017,5 hPa 0,0 l/m 0 min 0 min 0 W/m 16,1 km/h (3 Bft) 100,00 %
21.04.2020 05:54 7,7 C 6,7 C 6,1 C 66 % 1017,5 hPa 0,0 l/m 0 min 0 min 0 W/m 12,9 km/h (3 Bft) 100,00 %
21.04.2020 05:58 7,7 C 6,7 C 6,1 C 66 % 1017,5 hPa 0,0 l/m 0 min 0 min 0 W/m 19,3 km/h (3 Bft) 95,74 %
21.04.2020 06:00 7,7 C 6,7 C 6,1 C 66 % 1017,6 hPa 0,0 l/m 0 min 0 min 0 W/m 16,1 km/h (3 Bft) 97,87 %
21.04.2020 06:02 7,7 C 6,7 C 6,1 C 66 % 1017,5 hPa 0,0 l/m 0 min 0 min 0 W/m 6,4 km/h (2 Bft) 93,48 %
21.04.2020 06:04 7,7 C 6,7 C 6,1 C 66 % 1017,6 hPa 0,0 l/m 0 min 0 min 0 W/m 0,0 km/h (0 Bft) 100,00 %
21.04.2020 06:08 7,7 C 6,7 C 6,1 C 66 % 1017,5 hPa 0,0 l/m 0 min 0 min 0 W/m 16,1 km/h (3 Bft) 96,81 %
21.04.2020 06:10 7,7 C 6,7 C 6,1 C 66 % 1017,5 hPa 0,0 l/m 0 min 0 min 0 W/m 3,2 km/h (1 Bft) 97,87 %
21.04.2020 06:12 7,7 C 6,7 C 6,1 C 66 % 1017,5 hPa 0,0 l/m 0 min 0 min 0 W/m 0,0 km/h (0 Bft) 95,65 %
21.04.2020 06:14 7,7 C 6,7 C 6,1 C 66 % 1017,5 hPa 0,0 l/m 0 min 0 min 0 W/m 9,7 km/h (2 Bft) 95,74 %
21.04.2020 06:16 7,7 C 6,7 C 6,1 C 66 % 1017,5 hPa 0,0 l/m 0 min 0 min 0 W/m 0,0 km/h (0 Bft) 97,87 %
21.04.2020 06:18 7,7 C 6,7 C 6,1 C 66 % 1017,5 hPa 0,0 l/m 0 min 0 min 0 W/m 0,0 km/h (0 Bft) 97,87 %
21.04.2020 06:20 7,7 C 6,7 C 6,1 C 66 % 1017,5 hPa 0,0 l/m 0 min 0 min 0 W/m 0,0 km/h (0 Bft) 97,87 %
21.04.2020 06:22 7,7 C 6,7 C 6,1 C 66 % 1017,5 hPa 0,0 l/m 0 min 0 min 0 W/m 9,7 km/h (2 Bft) 54,55 %
21.04.2020 06:24 7,7 C 6,7 C 6,1 C 66 % 1017,5 hPa 0,0 l/m 0 min 0 min 0 W/m 12,9 km/h (3 Bft) 97,87 %
21.04.2020 06:26 7,7 C 6,7 C 6,1 C 66 % 1017,5 hPa 0,0 l/m 0 min 0 min 0 W/m 16,1 km/h (3 Bft) 97,83 %
21.04.2020 06:28 7,7 C 6,7 C 6,1 C 66 % 1017,5 hPa 0,0 l/m 0 min 0 min 5 W/m 6,4 km/h (2 Bft) 97,87 %
21.04.2020 06:30 7,7 C 6,7 C 6,1 C 66 % 1017,6 hPa 0,0 l/m 0 min 0 min 5 W/m 0,0 km/h (0 Bft) 97,87 %
21.04.2020 06:32 7,7 C 6,7 C 6,1 C 66 % 1017,6 hPa 0,0 l/m 0 min 0 min 5 W/m 16,1 km/h (3 Bft) 95,74 %
21.04.2020 06:34 7,7 C 6,7 C 6,1 C 66 % 1017,5 hPa 0,0 l/m 0 min 0 min 7 W/m 9,7 km/h (2 Bft) 97,87 %
21.04.2020 06:36 7,7 C 6,7 C 6,1 C 66 % 1017,5 hPa 0,0 l/m 0 min 0 min 7 W/m 19,3 km/h (3 Bft) 97,83 %
21.04.2020 06:38 7,7 C 6,7 C 6,1 C 67 % 1017,6 hPa 0,0 l/m 0 min 0 min 8 W/m 12,9 km/h (3 Bft) 93,62 %
21.04.2020 06:40 7,7 C 6,7 C 6,1 C 66 % 1017,6 hPa 0,0 l/m 0 min 0 min 9 W/m 0,0 km/h (0 Bft) 97,87 %
21.04.2020 06:42 7,7 C 6,7 C 6,1 C 67 % 1017,6 hPa 0,0 l/m 0 min 0 min 9 W/m 0,0 km/h (0 Bft) 97,87 %
21.04.2020 06:44 7,7 C 6,7 C 6,1 C 67 % 1017,6 hPa 0,0 l/m 0 min 0 min 11 W/m 12,9 km/h (3 Bft) 100,00 %
21.04.2020 06:46 7,7 C 6,7 C 6,1 C 67 % 1017,5 hPa 0,0 l/m 0 min 0 min 11 W/m 6,4 km/h (2 Bft) 100,00 %
21.04.2020 06:48 7,7 C 7,2 C 6,1 C 67 % 1017,6 hPa 0,0 l/m 0 min 0 min 11 W/m 9,7 km/h (2 Bft) 100,00 %
21.04.2020 06:50 7,7 C 6,7 C 6,1 C 67 % 1017,6 hPa 0,0 l/m 0 min 0 min 12 W/m 0,0 km/h (0 Bft) 100,00 %
21.04.2020 06:52 7,7 C 6,7 C 6,1 C 67 % 1017,6 hPa 0,0 l/m 0 min 0 min 12 W/m 0,0 km/h (0 Bft) 97,87 %
21.04.2020 06:54 7,7 C 6,7 C 6,1 C 67 % 1017,7 hPa 0,0 l/m 0 min 0 min 13 W/m 16,1 km/h (3 Bft) 100,00 %
21.04.2020 06:56 7,7 C 6,7 C 6,1 C 67 % 1017,6 hPa 0,0 l/m 0 min 0 min 14 W/m 9,7 km/h (2 Bft) 97,87 %
21.04.2020 06:58 7,7 C 6,7 C 6,1 C 67 % 1017,7 hPa 0,0 l/m 0 min 0 min 14 W/m 12,9 km/h (3 Bft) 97,87 %
21.04.2020 07:00 7,7 C 7,2 C 6,1 C 67 % 1017,7 hPa 0,0 l/m 0 min 0 min 16 W/m 12,9 km/h (3 Bft) 97,83 %
21.04.2020 07:02 7,7 C 7,2 C 6,1 C 67 % 1017,7 hPa 0,0 l/m 0 min 0 min 16 W/m 0,0 km/h (0 Bft) 97,87 %
21.04.2020 07:04 7,7 C 7,2 C 6,1 C 67 % 1017,7 hPa 0,0 l/m 0 min 0 min 17 W/m 0,0 km/h (0 Bft) 95,74 %
21.04.2020 07:06 7,7 C 7,2 C 6,1 C 67 % 1017,7 hPa 0,0 l/m 0 min 0 min 18 W/m 3,2 km/h (1 Bft) 97,87 %
21.04.2020 07:08 7,7 C 7,2 C 6,1 C 67 % 1017,7 hPa 0,0 l/m 0 min 0 min 18 W/m 0,0 km/h (0 Bft) 97,87 %
21.04.2020 07:10 7,7 C 7,2 C 6,1 C 67 % 1017,7 hPa 0,0 l/m 0 min 0 min 19 W/m 3,2 km/h (1 Bft) 95,65 %
21.04.2020 07:12 7,7 C 7,2 C 6,1 C 67 % 1017,7 hPa 0,0 l/m 0 min 0 min 19 W/m 0,0 km/h (0 Bft) 97,87 %
21.04.2020 07:14 7,7 C 7,2 C 6,1 C 67 % 1017,7 hPa 0,0 l/m 0 min 0 min 19 W/m 0,0 km/h (0 Bft) 97,87 %
21.04.2020 07:16 7,7 C 7,2 C 6,1 C 67 % 1017,7 hPa 0,0 l/m 0 min 0 min 20 W/m 0,0 km/h (0 Bft) 97,87 %
21.04.2020 07:18 7,7 C 7,2 C 6,7 C 67 % 1017,7 hPa 0,0 l/m 0 min 0 min 21 W/m 0,0 km/h (0 Bft) 97,87 %
21.04.2020 07:20 7,8 C 7,2 C 6,7 C 67 % 1017,7 hPa 0,0 l/m 0 min 0 min 21 W/m 0,0 km/h (0 Bft) 97,87 %
21.04.2020 07:22 7,8 C 7,2 C 6,7 C 67 % 1017,7 hPa 0,0 l/m 0 min 0 min 21 W/m 0,0 km/h (0 Bft) 97,83 %
21.04.2020 07:24 7,8 C 7,2 C 6,7 C 67 % 1017,8 hPa 0,0 l/m 0 min 0 min 23 W/m 0,0 km/h (0 Bft) 97,87 %
21.04.2020 07:26 7,8 C 7,2 C 6,7 C 67 % 1017,8 hPa 0,0 l/m 0 min 0 min 23 W/m 0,0 km/h (0 Bft) 97,87 %
21.04.2020 07:28 7,8 C 7,2 C 6,7 C 67 % 1017,7 hPa 0,0 l/m 0 min 0 min 24 W/m 3,2 km/h (1 Bft) 95,74 %
21.04.2020 07:30 7,9 C 7,2 C 6,7 C 67 % 1017,8 hPa 0,0 l/m 0 min 0 min 25 W/m 0,0 km/h (0 Bft) 95,74 %
21.04.2020 07:32 7,9 C 7,8 C 6,7 C 68 % 1017,8 hPa 0,0 l/m 0 min 0 min 25 W/m 12,9 km/h (3 Bft) 95,74 %
21.04.2020 07:34 7,9 C 7,8 C 6,7 C 67 % 1017,9 hPa 0,0 l/m 0 min 0 min 26 W/m 19,3 km/h (3 Bft) 95,65 %
21.04.2020 07:36 7,9 C 7,8 C 6,7 C 68 % 1017,8 hPa 0,0 l/m 0 min 0 min 26 W/m 9,7 km/h (2 Bft) 93,62 %
21.04.2020 07:38 8,0 C 7,8 C 6,7 C 68 % 1017,9 hPa 0,0 l/m 0 min 0 min 26 W/m 12,9 km/h (3 Bft) 95,74 %
21.04.2020 07:40 8,1 C 7,8 C 6,7 C 67 % 1017,9 hPa 0,0 l/m 0 min 0 min 26 W/m 0,0 km/h (0 Bft) 89,36 %
21.04.2020 07:42 8,1 C 7,8 C 6,7 C 68 % 1017,8 hPa 0,0 l/m 0 min 0 min 28 W/m 6,4 km/h (2 Bft) 95,74 %
21.04.2020 07:44 8,1 C 7,8 C 7,2 C 67 % 1017,9 hPa 0,0 l/m 0 min 0 min 28 W/m 3,2 km/h (1 Bft) 93,62 %
21.04.2020 07:46 8,2 C 7,8 C 7,2 C 67 % 1017,8 hPa 0,0 l/m 0 min 0 min 28 W/m 3,2 km/h (1 Bft) 95,65 %
21.04.2020 07:48 8,2 C 7,8 C 7,2 C 67 % 1017,9 hPa 0,0 l/m 0 min 0 min 30 W/m 0,0 km/h (0 Bft) 95,74 %
21.04.2020 07:50 8,3 C 7,8 C 7,2 C 67 % 1017,9 hPa 0,0 l/m 0 min 0 min 30 W/m 0,0 km/h (0 Bft) 100,00 %
21.04.2020 07:52 8,3 C 7,8 C 7,2 C 67 % 1017,9 hPa 0,0 l/m 0 min 0 min 30 W/m 3,2 km/h (1 Bft) 97,87 %
21.04.2020 07:54 8,3 C 8,3 C 7,2 C 67 % 1017,9 hPa 0,0 l/m 0 min 0 min 32 W/m 3,2 km/h (1 Bft) 95,74 %
21.04.2020 07:56 8,4 C 8,3 C 7,2 C 67 % 1017,9 hPa 0,0 l/m 0 min 0 min 32 W/m 9,7 km/h (2 Bft) 100,00 %
21.04.2020 07:58 8,4 C 8,3 C 7,2 C 67 % 1017,9 hPa 0,0 l/m 0 min 0 min 32 W/m 3,2 km/h (1 Bft) 93,62 %
21.04.2020 08:00 8,4 C 8,3 C 7,2 C 67 % 1017,9 hPa 0,0 l/m 0 min 0 min 32 W/m 3,2 km/h (1 Bft) 97,87 %
21.04.2020 08:02 8,5 C 8,3 C 7,2 C 67 % 1017,9 hPa 0,0 l/m 0 min 0 min 33 W/m 0,0 km/h (0 Bft) 97,87 %
21.04.2020 08:04 8,5 C 8,3 C 7,2 C 67 % 1017,9 hPa 0,0 l/m 0 min 0 min 33 W/m 6,4 km/h (2 Bft) 93,62 %
21.04.2020 08:06 8,6 C 8,3 C 7,2 C 66 % 1018,0 hPa 0,0 l/m 0 min 0 min 33 W/m 3,2 km/h (1 Bft) 95,74 %
21.04.2020 08:08 8,6 C 8,3 C 7,2 C 66 % 1017,9 hPa 0,0 l/m 0 min 0 min 35 W/m 16,1 km/h (3 Bft) 97,87 %
21.04.2020 08:10 8,6 C 8,3 C 7,2 C 66 % 1018,0 hPa 0,0 l/m 0 min 0 min 35 W/m 9,7 km/h (2 Bft) 95,65 %
21.04.2020 08:12 8,7 C 8,3 C 7,8 C 66 % 1017,9 hPa 0,0 l/m 0 min 0 min 35 W/m 9,7 km/h (2 Bft) 100,00 %
21.04.2020 08:14 8,7 C 8,3 C 7,8 C 66 % 1017,9 hPa 0,0 l/m 0 min 0 min 37 W/m 22,5 km/h (4 Bft) 100,00 %
21.04.2020 08:16 8,8 C 8,9 C 7,8 C 66 % 1018,0 hPa 0,0 l/m 0 min 0 min 37 W/m 3,2 km/h (1 Bft) 95,74 %
21.04.2020 08:18 8,8 C 8,9 C 7,8 C 66 % 1018,0 hPa 0,0 l/m 0 min 0 min 37 W/m 3,2 km/h (1 Bft) 100,00 %
21.04.2020 08:20 8,8 C 8,9 C 7,8 C 66 % 1018,0 hPa 0,0 l/m 0 min 0 min 39 W/m 3,2 km/h (1 Bft) 97,83 %
21.04.2020 08:22 8,9 C 8,9 C 7,8 C 66 % 1018,0 hPa 0,0 l/m 0 min 0 min 39 W/m 9,7 km/h (2 Bft) 97,87 %
21.04.2020 08:24 8,9 C 8,9 C 7,8 C 66 % 1017,9 hPa 0,0 l/m 0 min 0 min 39 W/m 3,2 km/h (1 Bft) 97,87 %
21.04.2020 08:26 9,0 C 8,9 C 7,8 C 66 % 1018,0 hPa 0,0 l/m 0 min 0 min 40 W/m 3,2 km/h (1 Bft) 100,00 %
21.04.2020 08:28 9,1 C 8,9 C 7,8 C 65 % 1018,0 hPa 0,0 l/m 0 min 0 min 40 W/m 3,2 km/h (1 Bft) 100,00 %
21.04.2020 08:30 9,1 C 8,9 C 7,8 C 65 % 1017,9 hPa 0,0 l/m 0 min 0 min 40 W/m 9,7 km/h (2 Bft) 97,87 %
21.04.2020 08:32 9,2 C 8,9 C 7,8 C 66 % 1017,9 hPa 0,0 l/m 0 min 0 min 42 W/m 12,9 km/h (3 Bft) 97,83 %
21.04.2020 08:34 9,2 C 9,4 C 8,3 C 66 % 1017,9 hPa 0,0 l/m 0 min 0 min 42 W/m 3,2 km/h (1 Bft) 97,87 %
21.04.2020 08:36 9,3 C 9,4 C 8,3 C 66 % 1018,0 hPa 0,0 l/m 0 min 0 min 42 W/m 0,0 km/h (0 Bft) 97,87 %
21.04.2020 08:38 9,3 C 9,4 C 8,3 C 65 % 1017,9 hPa 0,0 l/m 0 min 0 min 42 W/m 12,9 km/h (3 Bft) 97,87 %
21.04.2020 08:40 9,4 C 9,4 C 8,3 C 65 % 1018,0 hPa 0,0 l/m 0 min 0 min 44 W/m 19,3 km/h (3 Bft) 97,87 %
21.04.2020 08:42 9,5 C 9,4 C 8,3 C 65 % 1018,0 hPa 0,0 l/m 0 min 0 min 44 W/m 12,9 km/h (3 Bft) 97,87 %
21.04.2020 08:44 9,6 C 10,6 C 8,3 C 65 % 1017,9 hPa 0,0 l/m 0 min 0 min 44 W/m 9,7 km/h (2 Bft) 97,83 %
21.04.2020 08:46 9,6 C 12,2 C 8,9 C 65 % 1018,0 hPa 0,0 l/m 0 min 0 min 102 W/m 9,7 km/h (2 Bft) 97,87 %
21.04.2020 08:48 9,7 C 13,3 C 8,9 C 65 % 1018,0 hPa 0,0 l/m 2 min 0 min 309 W/m 9,7 km/h (2 Bft) 95,74 %
21.04.2020 08:50 9,8 C 13,9 C 8,9 C 65 % 1018,0 hPa 0,0 l/m 2 min 0 min 336 W/m 9,7 km/h (2 Bft) 93,62 %
21.04.2020 08:52 9,9 C 14,4 C 8,9 C 64 % 1018,0 hPa 0,0 l/m 2 min 0 min 342 W/m 6,4 km/h (2 Bft) 97,87 %
21.04.2020 08:54 10,0 C 14,4 C 8,9 C 64 % 1018,0 hPa 0,0 l/m 2 min 0 min 348 W/m 16,1 km/h (3 Bft) 97,87 %
21.04.2020 08:56 10,1 C 15,0 C 8,9 C 64 % 1018,1 hPa 0,0 l/m 2 min 0 min 355 W/m 12,9 km/h (3 Bft) 97,83 %
21.04.2020 08:58 10,2 C 14,4 C 9,4 C 63 % 1018,0 hPa 0,0 l/m 2 min 0 min 360 W/m 6,4 km/h (2 Bft) 97,87 %
21.04.2020 09:00 10,3 C 15,0 C 9,4 C 64 % 1018,1 hPa 0,0 l/m 2 min 0 min 367 W/m 6,4 km/h (2 Bft) 97,87 %
21.04.2020 09:02 10,5 C 15,0 C 9,4 C 63 % 1018,0 hPa 0,0 l/m 2 min 0 min 340 W/m 12,9 km/h (3 Bft) 97,87 %
21.04.2020 09:04 10,6 C 14,4 C 9,4 C 63 % 1018,1 hPa 0,0 l/m 2 min 0 min 281 W/m 12,9 km/h (3 Bft) 97,87 %
21.04.2020 09:06 10,8 C 14,4 C 10,0 C 62 % 1018,1 hPa 0,0 l/m 2 min 0 min 327 W/m 9,7 km/h (2 Bft) 97,87 %
21.04.2020 09:08 10,9 C 15,6 C 10,0 C 62 % 1018,1 hPa 0,0 l/m 2 min 0 min 333 W/m 16,1 km/h (3 Bft) 97,83 %
21.04.2020 09:10 11,1 C 15,6 C 10,6 C 62 % 1018,1 hPa 0,0 l/m 2 min 0 min 393 W/m 12,9 km/h (3 Bft) 97,87 %
21.04.2020 09:12 11,2 C 15,6 C 11,1 C 61 % 1018,1 hPa 0,0 l/m 2 min 0 min 405 W/m 16,1 km/h (3 Bft) 97,87 %
21.04.2020 09:14 11,3 C 15,6 C 11,1 C 61 % 1018,0 hPa 0,0 l/m 2 min 0 min 411 W/m 19,3 km/h (3 Bft) 95,74 %
21.04.2020 09:16 11,4 C 15,6 C 11,1 C 60 % 1018,0 hPa 0,0 l/m 2 min 0 min 416 W/m 22,5 km/h (4 Bft) 97,87 %
21.04.2020 09:18 11,6 C 16,7 C 11,7 C 60 % 1018,1 hPa 0,0 l/m 2 min 0 min 423 W/m 9,7 km/h (2 Bft) 97,87 %
21.04.2020 09:20 11,7 C 16,7 C 12,2 C 60 % 1018,0 hPa 0,0 l/m 2 min 0 min 428 W/m 12,9 km/h (3 Bft) 97,83 %
21.04.2020 09:22 11,8 C 16,7 C 12,8 C 59 % 1018,0 hPa 0,0 l/m 2 min 0 min 434 W/m 22,5 km/h (4 Bft) 95,74 %
21.04.2020 09:24 11,9 C 16,1 C 15,0 C 59 % 1018,0 hPa 0,0 l/m 2 min 0 min 439 W/m 22,5 km/h (4 Bft) 100,00 %
21.04.2020 09:26 12,1 C 16,1 C 16,7 C 59 % 1018,1 hPa 0,0 l/m 2 min 0 min 446 W/m 12,9 km/h (3 Bft) 97,87 %
21.04.2020 09:28 12,1 C 16,7 C 17,8 C 59 % 1018,0 hPa 0,0 l/m 2 min 0 min 451 W/m 12,9 km/h (3 Bft) 97,87 %
21.04.2020 09:30 12,3 C 16,7 C 18,3 C 59 % 1018,0 hPa 0,0 l/m 2 min 0 min 458 W/m 19,3 km/h (3 Bft) 97,83 %
21.04.2020 09:32 12,4 C 16,7 C 18,3 C 58 % 1018,0 hPa 0,0 l/m 2 min 0 min 464 W/m 12,9 km/h (3 Bft) 95,74 %
21.04.2020 09:34 12,5 C 17,2 C 18,9 C 58 % 1018,0 hPa 0,0 l/m 2 min 0 min 469 W/m 12,9 km/h (3 Bft) 97,87 %
21.04.2020 09:36 12,6 C 16,7 C 18,9 C 57 % 1018,0 hPa 0,0 l/m 2 min 0 min 476 W/m 16,1 km/h (3 Bft) 95,74 %
21.04.2020 09:38 12,7 C 17,2 C 19,4 C 58 % 1018,0 hPa 0,0 l/m 2 min 0 min 482 W/m 12,9 km/h (3 Bft) 97,87 %
21.04.2020 09:40 12,8 C 16,7 C 18,9 C 57 % 1018,0 hPa 0,0 l/m 2 min 0 min 488 W/m 16,1 km/h (3 Bft) 97,87 %
21.04.2020 09:42 12,9 C 17,2 C 20,0 C 58 % 1018,0 hPa 0,0 l/m 2 min 0 min 494 W/m 16,1 km/h (3 Bft) 97,83 %
21.04.2020 09:44 12,9 C 17,8 C 20,0 C 57 % 1018,0 hPa 0,0 l/m 2 min 0 min 501 W/m 22,5 km/h (4 Bft) 95,74 %
21.04.2020 09:46 13,1 C 17,2 C 19,4 C 56 % 1018,0 hPa 0,0 l/m 2 min 0 min 506 W/m 22,5 km/h (4 Bft) 95,74 %
21.04.2020 09:48 13,1 C 17,2 C 19,4 C 56 % 1017,9 hPa 0,0 l/m 2 min 0 min 512 W/m 12,9 km/h (3 Bft) 95,74 %
21.04.2020 09:50 13,2 C 16,7 C 19,4 C 55 % 1017,9 hPa 0,0 l/m 2 min 0 min 517 W/m 22,5 km/h (4 Bft) 95,74 %
21.04.2020 09:52 13,2 C 16,7 C 19,4 C 55 % 1017,9 hPa 0,0 l/m 2 min 0 min 523 W/m 12,9 km/h (3 Bft) 91,49 %
21.04.2020 09:54 13,3 C 17,2 C 19,4 C 55 % 1017,9 hPa 0,0 l/m 2 min 0 min 528 W/m 16,1 km/h (3 Bft) 93,48 %
21.04.2020 09:56 13,3 C 17,2 C 20,0 C 55 % 1017,9 hPa 0,0 l/m 2 min 0 min 534 W/m 16,1 km/h (3 Bft) 93,62 %
21.04.2020 09:58 13,4 C 17,8 C 20,0 C 55 % 1018,0 hPa 0,0 l/m 2 min 0 min 539 W/m 16,1 km/h (3 Bft) 91,49 %
21.04.2020 10:00 13,4 C 17,8 C 20,6 C 56 % 1018,0 hPa 0,0 l/m 2 min 0 min 544 W/m 25,7 km/h (4 Bft) 93,62 %
21.04.2020 10:02 13,6 C 17,2 C 20,0 C 55 % 1018,0 hPa 0,0 l/m 2 min 0 min 550 W/m 16,1 km/h (3 Bft) 93,62 %
21.04.2020 10:04 13,6 C 18,3 C 20,6 C 55 % 1017,9 hPa 0,0 l/m 2 min 0 min 554 W/m 16,1 km/h (3 Bft) 95,74 %
21.04.2020 10:06 13,7 C 17,2 C 20,0 C 54 % 1017,9 hPa 0,0 l/m 2 min 0 min 562 W/m 22,5 km/h (4 Bft) 93,48 %
21.04.2020 10:08 13,7 C 17,8 C 20,6 C 55 % 1018,0 hPa 0,0 l/m 2 min 0 min 565 W/m 19,3 km/h (3 Bft) 93,62 %
21.04.2020 10:10 13,8 C 18,3 C 20,6 C 55 % 1017,9 hPa 0,0 l/m 2 min 0 min 571 W/m 19,3 km/h (3 Bft) 93,62 %
21.04.2020 10:12 13,9 C 18,3 C 20,6 C 54 % 1017,9 hPa 0,0 l/m 2 min 0 min 578 W/m 12,9 km/h (3 Bft) 93,62 %
21.04.2020 10:14 14,0 C 18,3 C 21,1 C 54 % 1017,9 hPa 0,0 l/m 2 min 0 min 583 W/m 16,1 km/h (3 Bft) 93,62 %
21.04.2020 10:16 14,1 C 17,8 C 20,0 C 53 % 1017,9 hPa 0,0 l/m 2 min 0 min 588 W/m 19,3 km/h (3 Bft) 91,49 %
21.04.2020 10:18 14,1 C 18,3 C 20,6 C 54 % 1017,9 hPa 0,0 l/m 2 min 0 min 592 W/m 16,1 km/h (3 Bft) 93,48 %
21.04.2020 10:20 14,2 C 18,3 C 20,0 C 53 % 1017,9 hPa 0,0 l/m 2 min 0 min 598 W/m 19,3 km/h (3 Bft) 95,74 %
21.04.2020 10:22 14,3 C 18,9 C 20,6 C 53 % 1017,9 hPa 0,0 l/m 2 min 0 min 603 W/m 16,1 km/h (3 Bft) 95,74 %
21.04.2020 10:24 14,3 C 18,3 C 20,6 C 53 % 1017,9 hPa 0,0 l/m 2 min 0 min 609 W/m 29,0 km/h (5 Bft) 95,74 %
21.04.2020 10:26 14,3 C 18,9 C 21,1 C 54 % 1017,8 hPa 0,0 l/m 2 min 0 min 614 W/m 9,7 km/h (2 Bft) 97,87 %
21.04.2020 10:28 14,3 C 18,9 C 20,6 C 53 % 1017,9 hPa 0,0 l/m 2 min 0 min 619 W/m 16,1 km/h (3 Bft) 95,65 %
21.04.2020 10:30 14,4 C 18,9 C 21,1 C 53 % 1017,8 hPa 0,0 l/m 2 min 0 min 624 W/m 16,1 km/h (3 Bft) 97,87 %
21.04.2020 10:32 14,6 C 18,9 C 21,1 C 53 % 1017,9 hPa 0,0 l/m 2 min 0 min 630 W/m 19,3 km/h (3 Bft) 95,74 %
21.04.2020 10:34 14,6 C 18,9 C 21,7 C 52 % 1017,9 hPa 0,0 l/m 2 min 0 min 635 W/m 12,9 km/h (3 Bft) 97,87 %
21.04.2020 10:36 14,7 C 19,4 C 21,7 C 52 % 1017,9 hPa 0,0 l/m 2 min 0 min 638 W/m 16,1 km/h (3 Bft) 97,87 %
21.04.2020 10:38 14,8 C 19,4 C 21,1 C 52 % 1017,9 hPa 0,0 l/m 2 min 0 min 643 W/m 16,1 km/h (3 Bft) 100,00 %
21.04.2020 10:40 14,9 C 19,4 C 21,7 C 53 % 1017,9 hPa 0,0 l/m 2 min 0 min 647 W/m 16,1 km/h (3 Bft) 97,83 %
21.04.2020 10:42 14,9 C 18,9 C 20,6 C 52 % 1017,8 hPa 0,0 l/m 2 min 0 min 652 W/m 22,5 km/h (4 Bft) 100,00 %
21.04.2020 10:44 15,0 C 18,9 C 21,1 C 52 % 1017,9 hPa 0,0 l/m 2 min 0 min 657 W/m 16,1 km/h (3 Bft) 100,00 %
21.04.2020 10:46 15,1 C 18,9 C 20,6 C 52 % 1017,9 hPa 0,0 l/m 2 min 0 min 663 W/m 19,3 km/h (3 Bft) 100,00 %
21.04.2020 10:48 15,1 C 19,4 C 21,1 C 52 % 1017,9 hPa 0,0 l/m 2 min 0 min 666 W/m 22,5 km/h (4 Bft) 100,00 %
21.04.2020 10:50 15,2 C 19,4 C 21,7 C 52 % 1017,9 hPa 0,0 l/m 2 min 0 min 670 W/m 16,1 km/h (3 Bft) 100,00 %
21.04.2020 10:52 15,3 C 20,6 C 22,2 C 53 % 1017,9 hPa 0,0 l/m 2 min 0 min 677 W/m 12,9 km/h (3 Bft) 100,00 %
21.04.2020 10:54 15,4 C 20,0 C 22,2 C 51 % 1017,9 hPa 0,0 l/m 2 min 0 min 682 W/m 19,3 km/h (3 Bft) 97,87 %
21.04.2020 10:56 15,5 C 20,0 C 21,7 C 52 % 1017,9 hPa 0,0 l/m 2 min 0 min 687 W/m 19,3 km/h (3 Bft) 100,00 %
21.04.2020 10:58 15,6 C 19,4 C 21,1 C 51 % 1017,9 hPa 0,0 l/m 2 min 0 min 690 W/m 22,5 km/h (4 Bft) 100,00 %
21.04.2020 11:00 15,6 C 20,0 C 21,1 C 51 % 1017,9 hPa 0,0 l/m 2 min 0 min 695 W/m 22,5 km/h (4 Bft) 100,00 %
21.04.2020 11:02 15,7 C 20,6 C 21,7 C 51 % 1017,7 hPa 0,0 l/m 2 min 0 min 699 W/m 16,1 km/h (3 Bft) 100,00 %
21.04.2020 11:04 15,7 C 21,1 C 21,7 C 51 % 1017,8 hPa 0,0 l/m 2 min 0 min 704 W/m 16,1 km/h (3 Bft) 100,00 %
21.04.2020 11:06 15,8 C 20,6 C 20,0 C 51 % 1017,7 hPa 0,0 l/m 2 min 0 min 708 W/m 25,7 km/h (4 Bft) 100,00 %
21.04.2020 11:08 15,9 C 20,0 C 18,3 C 50 % 1017,7 hPa 0,0 l/m 2 min 0 min 713 W/m 22,5 km/h (4 Bft) 100,00 %
21.04.2020 11:10 15,9 C 20,6 C 17,2 C 50 % 1017,7 hPa 0,0 l/m 2 min 0 min 716 W/m 19,3 km/h (3 Bft) 100,00 %
21.04.2020 11:12 16,0 C 20,6 C 16,7 C 50 % 1017,6 hPa 0,0 l/m 2 min 0 min 720 W/m 19,3 km/h (3 Bft) 97,87 %
21.04.2020 11:14 16,1 C 20,6 C 16,1 C 50 % 1017,7 hPa 0,0 l/m 2 min 0 min 725 W/m 12,9 km/h (3 Bft) 100,00 %
21.04.2020 11:16 16,1 C 20,6 C 16,1 C 50 % 1017,6 hPa 0,0 l/m 2 min 0 min 728 W/m 22,5 km/h (4 Bft) 100,00 %
21.04.2020 11:18 16,2 C 21,1 C 16,1 C 50 % 1017,6 hPa 0,0 l/m 2 min 0 min 733 W/m 19,3 km/h (3 Bft) 100,00 %
21.04.2020 11:20 16,3 C 20,6 C 15,6 C 50 % 1017,6 hPa 0,0 l/m 2 min 0 min 737 W/m 19,3 km/h (3 Bft) 100,00 %
21.04.2020 11:22 16,3 C 20,6 C 15,6 C 50 % 1017,6 hPa 0,0 l/m 2 min 0 min 742 W/m 19,3 km/h (3 Bft) 100,00 %
21.04.2020 11:24 16,3 C 21,1 C 15,6 C 49 % 1017,6 hPa 0,0 l/m 2 min 0 min 745 W/m 16,1 km/h (3 Bft) 100,00 %
21.04.2020 11:26 16,4 C 21,1 C 15,6 C 49 % 1017,6 hPa 0,0 l/m 2 min 0 min 750 W/m 19,3 km/h (3 Bft) 100,00 %
21.04.2020 11:28 16,4 C 20,6 C 15,6 C 48 % 1017,6 hPa 0,0 l/m 2 min 0 min 752 W/m 16,1 km/h (3 Bft) 100,00 %
21.04.2020 11:30 16,5 C 20,6 C 16,1 C 49 % 1017,5 hPa 0,0 l/m 2 min 0 min 757 W/m 16,1 km/h (3 Bft) 100,00 %
21.04.2020 11:32 16,5 C 20,6 C 15,6 C 48 % 1017,5 hPa 0,0 l/m 2 min 0 min 761 W/m 19,3 km/h (3 Bft) 100,00 %
21.04.2020 11:34 16,6 C 21,1 C 15,6 C 49 % 1017,5 hPa 0,0 l/m 2 min 0 min 762 W/m 19,3 km/h (3 Bft) 100,00 %
21.04.2020 11:36 16,6 C 21,1 C 15,6 C 48 % 1017,5 hPa 0,0 l/m 2 min 0 min 767 W/m 22,5 km/h (4 Bft) 100,00 %
21.04.2020 11:38 16,6 C 20,6 C 16,1 C 48 % 1017,5 hPa 0,0 l/m 2 min 0 min 769 W/m 38,6 km/h (5 Bft) 95,65 %
21.04.2020 11:40 16,7 C 21,7 C 16,1 C 49 % 1017,5 hPa 0,0 l/m 2 min 0 min 772 W/m 19,3 km/h (3 Bft) 100,00 %
21.04.2020 11:42 16,7 C 21,1 C 16,1 C 49 % 1017,5 hPa 0,0 l/m 2 min 0 min 774 W/m 22,5 km/h (4 Bft) 100,00 %
21.04.2020 11:44 16,8 C 22,2 C 16,1 C 49 % 1017,5 hPa 0,0 l/m 2 min 0 min 779 W/m 16,1 km/h (3 Bft) 100,00 %
21.04.2020 11:46 16,9 C 21,7 C 16,1 C 49 % 1017,4 hPa 0,0 l/m 2 min 0 min 781 W/m 19,3 km/h (3 Bft) 100,00 %
21.04.2020 11:48 17,0 C 21,7 C 16,1 C 48 % 1017,4 hPa 0,0 l/m 2 min 0 min 785 W/m 22,5 km/h (4 Bft) 100,00 %
21.04.2020 11:50 17,1 C 21,7 C 16,7 C 47 % 1017,4 hPa 0,0 l/m 2 min 0 min 789 W/m 25,7 km/h (4 Bft) 100,00 %
21.04.2020 11:52 17,1 C 22,2 C 16,7 C 48 % 1017,4 hPa 0,0 l/m 2 min 0 min 791 W/m 19,3 km/h (3 Bft) 100,00 %
21.04.2020 11:54 17,2 C 21,7 C 16,7 C 47 % 1017,3 hPa 0,0 l/m 2 min 0 min 795 W/m 19,3 km/h (3 Bft) 100,00 %
21.04.2020 11:56 17,3 C 21,7 C 16,7 C 48 % 1017,4 hPa 0,0 l/m 2 min 0 min 796 W/m 19,3 km/h (3 Bft) 100,00 %
21.04.2020 11:58 17,4 C 21,7 C 16,7 C 47 % 1017,3 hPa 0,0 l/m 2 min 0 min 800 W/m 19,3 km/h (3 Bft) 100,00 %
21.04.2020 12:00 17,4 C 22,2 C 16,7 C 47 % 1017,3 hPa 0,0 l/m 2 min 0 min 801 W/m 16,1 km/h (3 Bft) 100,00 %
21.04.2020 12:02 17,6 C 22,8 C 16,7 C 48 % 1017,3 hPa 0,0 l/m 2 min 0 min 803 W/m 16,1 km/h (3 Bft) 100,00 %
21.04.2020 12:04 17,6 C 22,8 C 16,7 C 46 % 1017,4 hPa 0,0 l/m 2 min 0 min 809 W/m 19,3 km/h (3 Bft) 100,00 %
21.04.2020 12:08 17,7 C 22,2 C 16,7 C 45 % 1017,3 hPa 0,0 l/m 4 min 0 min 813 W/m 25,7 km/h (4 Bft) 100,00 %
21.04.2020 12:10 17,8 C 22,2 C 17,2 C 45 % 1017,3 hPa 0,0 l/m 2 min 0 min 819 W/m 22,5 km/h (4 Bft) 100,00 %
21.04.2020 12:12 17,8 C 22,8 C 17,2 C 46 % 1017,3 hPa 0,0 l/m 2 min 0 min 822 W/m 22,5 km/h (4 Bft) 100,00 %
21.04.2020 12:14 17,9 C 22,8 C 17,2 C 45 % 1017,2 hPa 0,0 l/m 2 min 0 min 824 W/m 19,3 km/h (3 Bft) 100,00 %
21.04.2020 12:16 17,9 C 22,2 C 17,2 C 44 % 1017,2 hPa 0,0 l/m 2 min 0 min 829 W/m 22,5 km/h (4 Bft) 97,87 %
21.04.2020 12:18 18,0 C 22,8 C 17,2 C 45 % 1017,2 hPa 0,0 l/m 2 min 0 min 830 W/m 22,5 km/h (4 Bft) 97,87 %
21.04.2020 12:20 18,0 C 22,2 C 17,2 C 44 % 1017,2 hPa 0,0 l/m 2 min 0 min 830 W/m 38,6 km/h (5 Bft) 97,87 %
21.04.2020 12:22 18,1 C 22,2 C 17,2 C 45 % 1017,1 hPa 0,0 l/m 2 min 0 min 836 W/m 19,3 km/h (3 Bft) 97,87 %
21.04.2020 12:24 18,1 C 22,8 C 17,2 C 45 % 1017,2 hPa 0,0 l/m 2 min 0 min 835 W/m 16,1 km/h (3 Bft) 97,87 %
21.04.2020 12:26 18,2 C 22,8 C 17,8 C 45 % 1017,1 hPa 0,0 l/m 2 min 0 min 838 W/m 25,7 km/h (4 Bft) 97,83 %
21.04.2020 12:28 18,3 C 22,8 C 17,8 C 45 % 1017,1 hPa 0,0 l/m 2 min 0 min 840 W/m 22,5 km/h (4 Bft) 97,87 %
21.04.2020 12:30 18,3 C 23,3 C 17,8 C 45 % 1017,1 hPa 0,0 l/m 2 min 0 min 842 W/m 19,3 km/h (3 Bft) 97,87 %
21.04.2020 12:32 18,4 C 23,9 C 17,8 C 45 % 1017,0 hPa 0,0 l/m 2 min 0 min 842 W/m 19,3 km/h (3 Bft) 97,87 %
21.04.2020 12:34 18,5 C 23,3 C 17,8 C 44 % 1017,0 hPa 0,0 l/m 2 min 0 min 845 W/m 22,5 km/h (4 Bft) 95,74 %
21.04.2020 12:36 18,5 C 22,8 C 17,8 C 44 % 1016,9 hPa 0,0 l/m 2 min 0 min 846 W/m 29,0 km/h (5 Bft) 97,83 %
21.04.2020 12:38 18,6 C 22,8 C 17,8 C 43 % 1016,9 hPa 0,0 l/m 2 min 0 min 847 W/m 22,5 km/h (4 Bft) 95,74 %
21.04.2020 12:40 18,6 C 22,2 C 17,8 C 43 % 1016,9 hPa 0,0 l/m 2 min 0 min 848 W/m 19,3 km/h (3 Bft) 97,87 %
21.04.2020 12:42 18,5 C 22,2 C 17,8 C 44 % 1016,9 hPa 0,0 l/m 2 min 0 min 850 W/m 25,7 km/h (4 Bft) 95,74 %
21.04.2020 12:44 18,5 C 22,8 C 18,3 C 44 % 1016,9 hPa 0,0 l/m 2 min 0 min 853 W/m 22,5 km/h (4 Bft) 95,74 %
21.04.2020 12:46 18,6 C 23,3 C 18,3 C 44 % 1016,9 hPa 0,0 l/m 2 min 0 min 853 W/m 16,1 km/h (3 Bft) 97,87 %
21.04.2020 12:48 18,6 C 22,8 C 18,3 C 44 % 1016,9 hPa 0,0 l/m 2 min 0 min 855 W/m 32,2 km/h (5 Bft) 97,87 %
21.04.2020 12:50 18,7 C 22,8 C 18,3 C 44 % 1016,9 hPa 0,0 l/m 2 min 0 min 856 W/m 25,7 km/h (4 Bft) 97,83 %
21.04.2020 12:52 18,8 C 23,3 C 18,3 C 44 % 1016,8 hPa 0,0 l/m 2 min 0 min 856 W/m 25,7 km/h (4 Bft) 93,62 %
21.04.2020 12:54 18,8 C 23,3 C 18,9 C 44 % 1016,9 hPa 0,0 l/m 2 min 0 min 859 W/m 29,0 km/h (5 Bft) 95,74 %
21.04.2020 12:56 18,8 C 23,3 C 18,9 C 44 % 1016,8 hPa 0,0 l/m 2 min 0 min 860 W/m 19,3 km/h (3 Bft) 95,74 %
21.04.2020 12:58 18,9 C 23,3 C 18,9 C 44 % 1016,9 hPa 0,0 l/m 2 min 0 min 863 W/m 22,5 km/h (4 Bft) 95,74 %
21.04.2020 13:00 18,9 C 23,3 C 18,9 C 44 % 1016,8 hPa 0,0 l/m 2 min 0 min 862 W/m 25,7 km/h (4 Bft) 97,83 %
21.04.2020 13:02 19,0 C 23,3 C 18,9 C 43 % 1016,9 hPa 0,0 l/m 2 min 0 min 864 W/m 19,3 km/h (3 Bft) 97,87 %
21.04.2020 13:04 19,1 C 23,9 C 18,9 C 45 % 1016,8 hPa 0,0 l/m 2 min 0 min 865 W/m 16,1 km/h (3 Bft) 95,74 %
21.04.2020 13:06 19,1 C 23,9 C 19,4 C 43 % 1016,9 hPa 0,0 l/m 2 min 0 min 867 W/m 29,0 km/h (5 Bft) 97,87 %
21.04.2020 13:08 19,2 C 23,9 C 19,4 C 43 % 1016,8 hPa 0,0 l/m 2 min 0 min 867 W/m 19,3 km/h (3 Bft) 97,87 %
21.04.2020 13:10 19,2 C 23,3 C 19,4 C 43 % 1016,7 hPa 0,0 l/m 2 min 0 min 868 W/m 22,5 km/h (4 Bft) 95,74 %
21.04.2020 13:12 19,2 C 23,9 C 19,4 C 43 % 1016,7 hPa 0,0 l/m 2 min 0 min 870 W/m 25,7 km/h (4 Bft) 93,48 %
21.04.2020 13:14 19,3 C 23,9 C 19,4 C 43 % 1016,8 hPa 0,0 l/m 2 min 0 min 872 W/m 19,3 km/h (3 Bft) 95,74 %
21.04.2020 13:16 19,3 C 23,3 C 19,4 C 42 % 1016,8 hPa 0,0 l/m 2 min 0 min 875 W/m 19,3 km/h (3 Bft) 97,87 %
21.04.2020 13:18 19,3 C 23,3 C 19,4 C 42 % 1016,8 hPa 0,0 l/m 2 min 0 min 872 W/m 22,5 km/h (4 Bft) 97,87 %
21.04.2020 13:20 19,3 C 23,3 C 19,4 C 42 % 1016,7 hPa 0,0 l/m 2 min 0 min 873 W/m 25,7 km/h (4 Bft) 97,87 %
21.04.2020 13:22 19,4 C 24,4 C 20,0 C 43 % 1016,8 hPa 0,0 l/m 2 min 0 min 873 W/m 16,1 km/h (3 Bft) 97,87 %
21.04.2020 13:24 19,5 C 23,9 C 20,0 C 43 % 1016,8 hPa 0,0 l/m 2 min 0 min 873 W/m 22,5 km/h (4 Bft) 97,83 %
21.04.2020 13:26 19,6 C 23,9 C 20,6 C 42 % 1016,8 hPa 0,0 l/m 2 min 0 min 875 W/m 25,7 km/h (4 Bft) 97,87 %
21.04.2020 13:28 19,7 C 23,9 C 21,7 C 42 % 1016,7 hPa 0,0 l/m 2 min 0 min 876 W/m 25,7 km/h (4 Bft) 97,87 %
21.04.2020 13:30 19,7 C 23,9 C 23,3 C 42 % 1016,8 hPa 0,0 l/m 2 min 0 min 877 W/m 19,3 km/h (3 Bft) 97,87 %
21.04.2020 13:32 19,8 C 24,4 C 24,4 C 42 % 1016,8 hPa 0,0 l/m 2 min 0 min 875 W/m 16,1 km/h (3 Bft) 97,87 %
21.04.2020 13:34 19,8 C 24,4 C 25,6 C 43 % 1016,8 hPa 0,0 l/m 2 min 0 min 875 W/m 22,5 km/h (4 Bft) 97,87 %
21.04.2020 13:36 19,9 C 24,4 C 26,1 C 42 % 1016,7 hPa 0,0 l/m 2 min 0 min 875 W/m 25,7 km/h (4 Bft) 97,83 %
21.04.2020 13:38 19,9 C 24,4 C 26,1 C 42 % 1016,7 hPa 0,0 l/m 2 min 0 min 876 W/m 25,7 km/h (4 Bft) 97,87 %
21.04.2020 13:40 20,1 C 25,0 C 26,7 C 42 % 1016,7 hPa 0,0 l/m 2 min 0 min 876 W/m 32,2 km/h (5 Bft) 97,87 %
21.04.2020 13:42 20,1 C 24,4 C 26,7 C 42 % 1016,7 hPa 0,0 l/m 2 min 0 min 876 W/m 19,3 km/h (3 Bft) 97,87 %
21.04.2020 13:44 20,2 C 24,4 C 26,7 C 41 % 1016,7 hPa 0,0 l/m 2 min 0 min 878 W/m 19,3 km/h (3 Bft) 97,87 %
21.04.2020 13:46 20,2 C 24,4 C 27,2 C 41 % 1016,7 hPa 0,0 l/m 2 min 0 min 876 W/m 22,5 km/h (4 Bft) 97,83 %
21.04.2020 13:48 20,2 C 24,4 C 27,2 C 41 % 1016,7 hPa 0,0 l/m 2 min 0 min 878 W/m 38,6 km/h (5 Bft) 97,87 %
21.04.2020 13:50 20,3 C 24,4 C 27,2 C 41 % 1016,7 hPa 0,0 l/m 2 min 0 min 876 W/m 19,3 km/h (3 Bft) 100,00 %
21.04.2020 13:52 20,3 C 24,4 C 27,2 C 41 % 1016,7 hPa 0,0 l/m 2 min 0 min 880 W/m 19,3 km/h (3 Bft) 100,00 %
21.04.2020 13:54 20,3 C 23,9 C 26,7 C 40 % 1016,7 hPa 0,0 l/m 2 min 0 min 876 W/m 19,3 km/h (3 Bft) 100,00 %
21.04.2020 13:56 20,4 C 25,0 C 27,2 C 40 % 1016,7 hPa 0,0 l/m 2 min 0 min 879 W/m 19,3 km/h (3 Bft) 100,00 %
21.04.2020 13:58 20,4 C 25,0 C 27,8 C 41 % 1016,7 hPa 0,0 l/m 2 min 0 min 878 W/m 22,5 km/h (4 Bft) 95,65 %
21.04.2020 14:00 20,5 C 25,0 C 27,8 C 41 % 1016,6 hPa 0,0 l/m 2 min 0 min 874 W/m 16,1 km/h (3 Bft) 97,87 %
21.04.2020 14:02 20,6 C 24,4 C 27,2 C 41 % 1016,6 hPa 0,0 l/m 2 min 0 min 874 W/m 22,5 km/h (4 Bft) 97,87 %
21.04.2020 14:04 20,6 C 24,4 C 27,2 C 41 % 1016,6 hPa 0,0 l/m 2 min 0 min 874 W/m 22,5 km/h (4 Bft) 97,96 %
21.04.2020 14:06 20,6 C 24,4 C 27,8 C 41 % 1016,7 hPa 0,0 l/m 2 min 0 min 873 W/m 25,7 km/h (4 Bft) 97,87 %
21.04.2020 14:08 20,6 C 24,4 C 27,2 C 40 % 1016,7 hPa 0,0 l/m 2 min 0 min 870 W/m 19,3 km/h (3 Bft) 97,87 %
21.04.2020 14:10 20,6 C 24,4 C 27,2 C 41 % 1016,7 hPa 0,0 l/m 2 min 0 min 868 W/m 22,5 km/h (4 Bft) 97,78 %
21.04.2020 14:12 20,6 C 24,4 C 27,2 C 41 % 1016,7 hPa 0,0 l/m 2 min 0 min 866 W/m 16,1 km/h (3 Bft) 100,00 %
21.04.2020 14:14 20,6 C 24,4 C 26,7 C 39 % 1016,5 hPa 0,0 l/m 2 min 0 min 869 W/m 25,7 km/h (4 Bft) 100,00 %
21.04.2020 14:16 20,6 C 25,0 C 27,8 C 41 % 1016,6 hPa 0,0 l/m 2 min 0 min 863 W/m 16,1 km/h (3 Bft) 97,96 %
21.04.2020 14:18 20,7 C 25,0 C 27,2 C 40 % 1016,5 hPa 0,0 l/m 2 min 0 min 862 W/m 19,3 km/h (3 Bft) 97,87 %
21.04.2020 14:20 20,7 C 25,0 C 27,8 C 40 % 1016,6 hPa 0,0 l/m 2 min 0 min 865 W/m 22,5 km/h (4 Bft) 97,87 %
21.04.2020 14:22 20,7 C 24,4 C 27,2 C 40 % 1016,7 hPa 0,0 l/m 2 min 0 min 864 W/m 19,3 km/h (3 Bft) 97,87 %
21.04.2020 14:24 20,7 C 24,4 C 27,2 C 40 % 1016,6 hPa 0,0 l/m 2 min 0 min 860 W/m 19,3 km/h (3 Bft) 97,87 %
21.04.2020 14:26 20,7 C 24,4 C 27,2 C 40 % 1016,6 hPa 0,0 l/m 2 min 0 min 856 W/m 22,5 km/h (4 Bft) 97,83 %
21.04.2020 14:28 20,8 C 25,0 C 26,7 C 40 % 1016,6 hPa 0,0 l/m 2 min 0 min 855 W/m 16,1 km/h (3 Bft) 97,87 %
21.04.2020 14:30 20,8 C 25,0 C 25,6 C 41 % 1016,6 hPa 0,0 l/m 2 min 0 min 855 W/m 25,7 km/h (4 Bft) 97,87 %
21.04.2020 14:32 20,9 C 25,0 C 23,9 C 39 % 1016,6 hPa 0,0 l/m 2 min 0 min 854 W/m 22,5 km/h (4 Bft) 95,74 %
21.04.2020 14:34 20,9 C 24,4 C 22,8 C 40 % 1016,6 hPa 0,0 l/m 2 min 0 min 850 W/m 16,1 km/h (3 Bft) 97,87 %
21.04.2020 14:36 20,9 C 25,0 C 22,2 C 40 % 1016,6 hPa 0,0 l/m 2 min 0 min 850 W/m 16,1 km/h (3 Bft) 97,87 %
21.04.2020 14:38 20,9 C 25,0 C 21,7 C 39 % 1016,6 hPa 0,0 l/m 2 min 0 min 849 W/m 19,3 km/h (3 Bft) 97,83 %
21.04.2020 14:40 20,9 C 25,0 C 21,7 C 40 % 1016,5 hPa 0,0 l/m 2 min 0 min 847 W/m 16,1 km/h (3 Bft) 97,87 %
21.04.2020 14:42 21,0 C 25,6 C 21,7 C 40 % 1016,5 hPa 0,0 l/m 2 min 0 min 844 W/m 19,3 km/h (3 Bft) 95,74 %
21.04.2020 14:44 21,1 C 25,0 C 21,7 C 40 % 1016,5 hPa 0,0 l/m 2 min 0 min 843 W/m 19,3 km/h (3 Bft) 97,87 %
21.04.2020 14:46 21,1 C 25,0 C 21,7 C 40 % 1016,5 hPa 0,0 l/m 2 min 0 min 839 W/m 19,3 km/h (3 Bft) 97,87 %
21.04.2020 14:48 21,1 C 25,0 C 21,7 C 40 % 1016,5 hPa 0,0 l/m 2 min 0 min 836 W/m 25,7 km/h (4 Bft) 95,74 %
21.04.2020 14:50 21,2 C 25,6 C 21,7 C 41 % 1016,6 hPa 0,0 l/m 2 min 0 min 833 W/m 9,7 km/h (2 Bft) 95,65 %
21.04.2020 14:52 21,2 C 25,6 C 21,7 C 39 % 1016,5 hPa 0,0 l/m 2 min 0 min 832 W/m 25,7 km/h (4 Bft) 93,62 %
21.04.2020 14:54 21,2 C 25,0 C 21,7 C 39 % 1016,5 hPa 0,0 l/m 2 min 0 min 829 W/m 19,3 km/h (3 Bft) 95,74 %
21.04.2020 14:56 21,2 C 24,4 C 21,1 C 39 % 1016,4 hPa 0,0 l/m 2 min 0 min 825 W/m 19,3 km/h (3 Bft) 95,74 %
21.04.2020 14:58 21,1 C 24,4 C 21,1 C 40 % 1016,5 hPa 0,0 l/m 2 min 0 min 823 W/m 22,5 km/h (4 Bft) 95,74 %
21.04.2020 15:00 21,1 C 23,9 C 21,1 C 39 % 1016,4 hPa 0,0 l/m 2 min 0 min 821 W/m 22,5 km/h (4 Bft) 95,74 %
21.04.2020 15:02 21,1 C 24,4 C 21,1 C 40 % 1016,4 hPa 0,0 l/m 2 min 0 min 819 W/m 16,1 km/h (3 Bft) 95,65 %
21.04.2020 15:04 21,1 C 23,9 C 21,1 C 39 % 1016,4 hPa 0,0 l/m 2 min 0 min 818 W/m 25,7 km/h (4 Bft) 95,74 %
21.04.2020 15:06 21,1 C 23,9 C 21,1 C 39 % 1016,3 hPa 0,0 l/m 2 min 0 min 814 W/m 32,2 km/h (5 Bft) 93,62 %
21.04.2020 15:08 21,0 C 24,4 C 21,1 C 39 % 1016,4 hPa 0,0 l/m 2 min 0 min 810 W/m 16,1 km/h (3 Bft) 93,62 %
21.04.2020 15:10 21,0 C 24,4 C 21,1 C 39 % 1016,3 hPa 0,0 l/m 2 min 0 min 808 W/m 22,5 km/h (4 Bft) 95,74 %
21.04.2020 15:12 21,0 C 24,4 C 21,7 C 40 % 1016,3 hPa 0,0 l/m 2 min 0 min 808 W/m 19,3 km/h (3 Bft) 93,62 %
21.04.2020 15:14 21,0 C 24,4 C 21,7 C 40 % 1016,2 hPa 0,0 l/m 2 min 0 min 803 W/m 25,7 km/h (4 Bft) 91,30 %
21.04.2020 15:16 21,1 C 24,4 C 21,1 C 39 % 1016,2 hPa 0,0 l/m 2 min 0 min 802 W/m 22,5 km/h (4 Bft) 95,74 %
21.04.2020 15:18 21,1 C 24,4 C 21,1 C 39 % 1016,3 hPa 0,0 l/m 2 min 0 min 797 W/m 25,7 km/h (4 Bft) 95,74 %
21.04.2020 15:20 21,1 C 24,4 C 21,7 C 39 % 1016,3 hPa 0,0 l/m 2 min 0 min 796 W/m 22,5 km/h (4 Bft) 97,87 %
21.04.2020 15:22 21,1 C 24,4 C 21,7 C 39 % 1016,2 hPa 0,0 l/m 2 min 0 min 793 W/m 19,3 km/h (3 Bft) 97,87 %
21.04.2020 15:24 21,1 C 23,9 C 21,1 C 39 % 1016,3 hPa 0,0 l/m 2 min 0 min 791 W/m 25,7 km/h (4 Bft) 95,65 %
21.04.2020 15:26 21,1 C 24,4 C 21,1 C 39 % 1016,2 hPa 0,0 l/m 2 min 0 min 788 W/m 22,5 km/h (4 Bft) 95,74 %
21.04.2020 15:28 21,1 C 24,4 C 21,7 C 39 % 1016,2 hPa 0,0 l/m 2 min 0 min 784 W/m 22,5 km/h (4 Bft) 100,00 %
21.04.2020 15:30 21,1 C 23,9 C 21,7 C 39 % 1016,1 hPa 0,0 l/m 2 min 0 min 781 W/m 19,3 km/h (3 Bft) 100,00 %
21.04.2020 15:32 21,1 C 25,0 C 21,7 C 40 % 1016,1 hPa 0,0 l/m 2 min 0 min 777 W/m 16,1 km/h (3 Bft) 97,87 %
21.04.2020 15:34 21,2 C 24,4 C 21,7 C 39 % 1016,1 hPa 0,0 l/m 2 min 0 min 773 W/m 19,3 km/h (3 Bft) 100,00 %
21.04.2020 15:36 21,3 C 23,9 C 21,7 C 39 % 1016,0 hPa 0,0 l/m 2 min 0 min 772 W/m 22,5 km/h (4 Bft) 97,87 %
21.04.2020 15:38 21,3 C 24,4 C 21,7 C 39 % 1016,0 hPa 0,0 l/m 2 min 0 min 767 W/m 22,5 km/h (4 Bft) 100,00 %
21.04.2020 15:40 21,3 C 23,9 C 21,1 C 38 % 1015,9 hPa 0,0 l/m 2 min 0 min 764 W/m 25,7 km/h (4 Bft) 97,87 %
21.04.2020 15:42 21,3 C 23,9 C 21,1 C 38 % 1016,0 hPa 0,0 l/m 2 min 0 min 758 W/m 25,7 km/h (4 Bft) 100,00 %
21.04.2020 15:44 21,2 C 23,9 C 21,1 C 39 % 1015,9 hPa 0,0 l/m 2 min 0 min 757 W/m 22,5 km/h (4 Bft) 100,00 %
21.04.2020 15:46 21,2 C 23,9 C 21,1 C 38 % 1015,9 hPa 0,0 l/m 2 min 0 min 754 W/m 22,5 km/h (4 Bft) 100,00 %
21.04.2020 15:48 21,2 C 23,9 C 21,1 C 38 % 1016,0 hPa 0,0 l/m 2 min 0 min 750 W/m 22,5 km/h (4 Bft) 100,00 %
21.04.2020 15:50 21,2 C 24,4 C 21,7 C 39 % 1015,9 hPa 0,0 l/m 2 min 0 min 748 W/m 22,5 km/h (4 Bft) 100,00 %
21.04.2020 15:52 21,2 C 24,4 C 21,7 C 38 % 1016,0 hPa 0,0 l/m 2 min 0 min 745 W/m 25,7 km/h (4 Bft) 100,00 %
21.04.2020 15:54 21,2 C 23,9 C 21,1 C 38 % 1015,9 hPa 0,0 l/m 2 min 0 min 740 W/m 25,7 km/h (4 Bft) 100,00 %
21.04.2020 15:56 21,2 C 23,9 C 21,1 C 38 % 1015,9 hPa 0,0 l/m 2 min 0 min 739 W/m 25,7 km/h (4 Bft) 100,00 %
21.04.2020 15:58 21,2 C 24,4 C 21,1 C 38 % 1015,8 hPa 0,0 l/m 2 min 0 min 734 W/m 25,7 km/h (4 Bft) 97,87 %
21.04.2020 16:00 21,2 C 24,4 C 21,1 C 38 % 1015,9 hPa 0,0 l/m 2 min 0 min 727 W/m 22,5 km/h (4 Bft) 100,00 %
21.04.2020 16:02 21,3 C 23,9 C 21,1 C 38 % 1015,9 hPa 0,0 l/m 2 min 0 min 723 W/m 25,7 km/h (4 Bft) 97,87 %
21.04.2020 16:04 21,3 C 24,4 C 21,7 C 39 % 1015,9 hPa 0,0 l/m 2 min 0 min 720 W/m 19,3 km/h (3 Bft) 97,87 %
21.04.2020 16:06 21,3 C 23,9 C 21,7 C 38 % 1015,8 hPa 0,0 l/m 2 min 0 min 717 W/m 32,2 km/h (5 Bft) 95,74 %
21.04.2020 16:08 21,3 C 23,9 C 21,1 C 38 % 1015,7 hPa 0,0 l/m 2 min 0 min 709 W/m 19,3 km/h (3 Bft) 95,74 %
21.04.2020 16:10 21,3 C 24,4 C 21,7 C 39 % 1015,8 hPa 0,0 l/m 2 min 0 min 705 W/m 16,1 km/h (3 Bft) 97,87 %
21.04.2020 16:12 21,4 C 24,4 C 21,7 C 38 % 1015,8 hPa 0,0 l/m 2 min 0 min 701 W/m 25,7 km/h (4 Bft) 95,65 %
21.04.2020 16:14 21,4 C 24,4 C 21,7 C 38 % 1015,8 hPa 0,0 l/m 2 min 0 min 697 W/m 22,5 km/h (4 Bft) 97,87 %
21.04.2020 16:16 21,4 C 23,9 C 21,7 C 38 % 1015,7 hPa 0,0 l/m 2 min 0 min 691 W/m 22,5 km/h (4 Bft) 97,87 %
21.04.2020 16:18 21,4 C 23,9 C 21,7 C 38 % 1015,8 hPa 0,0 l/m 2 min 0 min 687 W/m 19,3 km/h (3 Bft) 97,87 %
21.04.2020 16:20 21,3 C 23,9 C 21,7 C 38 % 1015,7 hPa 0,0 l/m 2 min 0 min 684 W/m 29,0 km/h (5 Bft) 97,87 %
21.04.2020 16:22 21,3 C 23,9 C 22,2 C 39 % 1015,6 hPa 0,0 l/m 2 min 0 min 679 W/m 19,3 km/h (3 Bft) 95,74 %
21.04.2020 16:24 21,3 C 23,9 C 23,3 C 38 % 1015,6 hPa 0,0 l/m 2 min 0 min 676 W/m 19,3 km/h (3 Bft) 97,83 %
21.04.2020 16:26 21,4 C 24,4 C 23,9 C 39 % 1015,6 hPa 0,0 l/m 2 min 0 min 671 W/m 22,5 km/h (4 Bft) 97,87 %
21.04.2020 16:28 21,4 C 24,4 C 23,9 C 38 % 1015,6 hPa 0,0 l/m 2 min 0 min 667 W/m 29,0 km/h (5 Bft) 97,87 %
21.04.2020 16:30 21,4 C 24,4 C 22,8 C 38 % 1015,6 hPa 0,0 l/m 2 min 0 min 662 W/m 22,5 km/h (4 Bft) 97,87 %
21.04.2020 16:32 21,4 C 23,9 C 22,2 C 37 % 1015,6 hPa 0,0 l/m 2 min 0 min 657 W/m 35,4 km/h (5 Bft) 95,74 %
21.04.2020 16:34 21,4 C 23,3 C 21,7 C 38 % 1015,5 hPa 0,0 l/m 2 min 0 min 650 W/m 29,0 km/h (5 Bft) 97,87 %
21.04.2020 16:36 21,4 C 23,3 C 21,1 C 38 % 1015,5 hPa 0,0 l/m 2 min 0 min 647 W/m 22,5 km/h (4 Bft) 97,83 %
21.04.2020 16:38 21,3 C 23,9 C 21,1 C 38 % 1015,6 hPa 0,0 l/m 2 min 0 min 641 W/m 19,3 km/h (3 Bft) 97,87 %
21.04.2020 16:40 21,3 C 23,3 C 21,1 C 38 % 1015,5 hPa 0,0 l/m 2 min 0 min 636 W/m 22,5 km/h (4 Bft) 97,87 %
21.04.2020 16:42 21,3 C 23,3 C 21,1 C 38 % 1015,6 hPa 0,0 l/m 2 min 0 min 632 W/m 22,5 km/h (4 Bft) 97,87 %
21.04.2020 16:44 21,3 C 23,9 C 21,7 C 38 % 1015,5 hPa 0,0 l/m 2 min 0 min 627 W/m 22,5 km/h (4 Bft) 97,87 %
21.04.2020 16:46 21,3 C 23,9 C 22,2 C 38 % 1015,5 hPa 0,0 l/m 2 min 0 min 621 W/m 19,3 km/h (3 Bft) 97,83 %
21.04.2020 16:48 21,3 C 23,9 C 22,8 C 38 % 1015,6 hPa 0,0 l/m 2 min 0 min 617 W/m 22,5 km/h (4 Bft) 97,87 %
21.04.2020 16:50 21,3 C 23,9 C 21,7 C 38 % 1015,5 hPa 0,0 l/m 2 min 0 min 612 W/m 19,3 km/h (3 Bft) 97,87 %
21.04.2020 16:52 21,3 C 23,9 C 21,7 C 38 % 1015,6 hPa 0,0 l/m 2 min 0 min 607 W/m 22,5 km/h (4 Bft) 97,87 %
21.04.2020 16:54 21,4 C 23,9 C 22,2 C 39 % 1015,5 hPa 0,0 l/m 2 min 0 min 602 W/m 16,1 km/h (3 Bft) 97,87 %
21.04.2020 16:56 21,4 C 23,9 C 22,2 C 38 % 1015,5 hPa 0,0 l/m 2 min 0 min 595 W/m 22,5 km/h (4 Bft) 100,00 %
21.04.2020 16:58 21,4 C 23,9 C 22,8 C 38 % 1015,4 hPa 0,0 l/m 2 min 0 min 591 W/m 16,1 km/h (3 Bft) 100,00 %
21.04.2020 17:00 21,4 C 23,9 C 22,8 C 38 % 1015,4 hPa 0,0 l/m 2 min 0 min 586 W/m 19,3 km/h (3 Bft) 97,87 %
21.04.2020 17:02 21,4 C 23,9 C 23,9 C 39 % 1015,5 hPa 0,0 l/m 2 min 0 min 581 W/m 16,1 km/h (3 Bft) 100,00 %
21.04.2020 17:04 21,4 C 23,9 C 24,4 C 38 % 1015,5 hPa 0,0 l/m 2 min 0 min 576 W/m 22,5 km/h (4 Bft) 97,87 %
21.04.2020 17:06 21,4 C 23,9 C 24,4 C 38 % 1015,5 hPa 0,0 l/m 2 min 0 min 570 W/m 19,3 km/h (3 Bft) 100,00 %
21.04.2020 17:08 21,4 C 23,9 C 24,4 C 38 % 1015,5 hPa 0,0 l/m 2 min 0 min 563 W/m 16,1 km/h (3 Bft) 100,00 %
21.04.2020 17:10 21,4 C 23,3 C 23,9 C 38 % 1015,5 hPa 0,0 l/m 2 min 0 min 558 W/m 22,5 km/h (4 Bft) 100,00 %
21.04.2020 17:12 21,4 C 23,3 C 23,3 C 38 % 1015,5 hPa 0,0 l/m 2 min 0 min 554 W/m 25,7 km/h (4 Bft) 97,87 %
21.04.2020 17:14 21,4 C 23,9 C 22,8 C 38 % 1015,5 hPa 0,0 l/m 2 min 0 min 549 W/m 19,3 km/h (3 Bft) 97,87 %
21.04.2020 17:16 21,4 C 23,3 C 22,8 C 37 % 1015,5 hPa 0,0 l/m 2 min 0 min 544 W/m 22,5 km/h (4 Bft) 97,87 %
21.04.2020 17:18 21,4 C 23,3 C 23,3 C 38 % 1015,5 hPa 0,0 l/m 2 min 0 min 536 W/m 32,2 km/h (5 Bft) 98,08 %
21.04.2020 17:20 21,3 C 23,3 C 23,9 C 38 % 1015,5 hPa 0,0 l/m 2 min 0 min 530 W/m 22,5 km/h (4 Bft) 95,65 %
21.04.2020 17:22 21,3 C 23,3 C 24,4 C 38 % 1015,5 hPa 0,0 l/m 2 min 0 min 524 W/m 25,7 km/h (4 Bft) 95,74 %
21.04.2020 17:24 21,3 C 23,9 C 24,4 C 38 % 1015,5 hPa 0,0 l/m 2 min 0 min 517 W/m 22,5 km/h (4 Bft) 97,87 %
21.04.2020 17:26 21,4 C 23,3 C 23,9 C 38 % 1015,6 hPa 0,0 l/m 2 min 0 min 510 W/m 45,1 km/h (6 Bft) 95,74 %
21.04.2020 17:28 21,4 C 23,3 C 23,9 C 38 % 1015,5 hPa 0,0 l/m 2 min 0 min 503 W/m 22,5 km/h (4 Bft) 97,87 %
21.04.2020 17:30 21,4 C 23,3 C 23,9 C 38 % 1015,6 hPa 0,0 l/m 2 min 0 min 497 W/m 16,1 km/h (3 Bft) 95,74 %
21.04.2020 17:32 21,4 C 23,3 C 23,9 C 38 % 1015,5 hPa 0,0 l/m 2 min 0 min 493 W/m 19,3 km/h (3 Bft) 97,83 %
21.04.2020 17:34 21,4 C 23,3 C 22,8 C 38 % 1015,5 hPa 0,0 l/m 2 min 0 min 489 W/m 16,1 km/h (3 Bft) 97,87 %
21.04.2020 17:36 21,3 C 23,3 C 21,7 C 38 % 1015,5 hPa 0,0 l/m 2 min 0 min 482 W/m 22,5 km/h (4 Bft) 97,87 %
21.04.2020 17:38 21,3 C 23,3 C 21,1 C 38 % 1015,5 hPa 0,0 l/m 2 min 0 min 476 W/m 19,3 km/h (3 Bft) 95,74 %
21.04.2020 17:40 21,3 C 22,8 C 21,1 C 37 % 1015,5 hPa 0,0 l/m 2 min 0 min 471 W/m 19,3 km/h (3 Bft) 95,74 %
21.04.2020 17:42 21,3 C 23,3 C 21,7 C 38 % 1015,5 hPa 0,0 l/m 2 min 0 min 463 W/m 19,3 km/h (3 Bft) 91,49 %
21.04.2020 17:44 21,3 C 22,8 C 21,1 C 38 % 1015,5 hPa 0,0 l/m 2 min 0 min 459 W/m 29,0 km/h (5 Bft) 95,65 %
21.04.2020 17:46 21,3 C 22,8 C 20,6 C 38 % 1015,5 hPa 0,0 l/m 2 min 0 min 451 W/m 16,1 km/h (3 Bft) 95,74 %
21.04.2020 17:48 21,2 C 22,8 C 20,0 C 38 % 1015,5 hPa 0,0 l/m 2 min 0 min 443 W/m 19,3 km/h (3 Bft) 95,74 %
21.04.2020 17:50 21,2 C 22,8 C 20,0 C 38 % 1015,5 hPa 0,0 l/m 2 min 0 min 438 W/m 19,3 km/h (3 Bft) 95,74 %
21.04.2020 17:52 21,2 C 22,8 C 19,4 C 39 % 1015,5 hPa 0,0 l/m 2 min 0 min 433 W/m 22,5 km/h (4 Bft) 95,74 %
21.04.2020 17:54 21,1 C 22,2 C 18,9 C 38 % 1015,5 hPa 0,0 l/m 2 min 0 min 424 W/m 22,5 km/h (4 Bft) 97,83 %
21.04.2020 17:56 21,1 C 22,2 C 18,9 C 38 % 1015,4 hPa 0,0 l/m 2 min 0 min 388 W/m 12,9 km/h (3 Bft) 93,62 %
21.04.2020 17:58 21,1 C 22,8 C 18,9 C 40 % 1015,6 hPa 0,0 l/m 2 min 0 min 392 W/m 12,9 km/h (3 Bft) 97,87 %
21.04.2020 18:00 21,1 C 22,8 C 18,3 C 39 % 1015,6 hPa 0,0 l/m 2 min 0 min 394 W/m 16,1 km/h (3 Bft) 95,12 %
21.04.2020 18:02 21,1 C 23,3 C 18,9 C 39 % 1015,5 hPa 0,0 l/m 2 min 0 min 382 W/m 16,1 km/h (3 Bft) 97,87 %
21.04.2020 18:04 21,1 C 22,8 C 18,3 C 39 % 1015,5 hPa 0,0 l/m 2 min 0 min 377 W/m 19,3 km/h (3 Bft) 97,87 %
21.04.2020 18:08 20,9 C 22,2 C 18,3 C 38 % 1015,5 hPa 0,0 l/m 4 min 0 min 358 W/m 22,5 km/h (4 Bft) 96,77 %
21.04.2020 18:10 20,9 C 22,2 C 18,3 C 39 % 1015,5 hPa 0,0 l/m 2 min 0 min 349 W/m 19,3 km/h (3 Bft) 97,87 %
21.04.2020 18:12 20,9 C 21,7 C 18,3 C 38 % 1015,5 hPa 0,0 l/m 2 min 0 min 347 W/m 29,0 km/h (5 Bft) 97,87 %
21.04.2020 18:14 20,8 C 22,2 C 18,3 C 39 % 1015,6 hPa 0,0 l/m 2 min 0 min 349 W/m 19,3 km/h (3 Bft) 97,87 %
21.04.2020 18:16 20,8 C 21,7 C 18,3 C 39 % 1015,6 hPa 0,0 l/m 2 min 0 min 345 W/m 25,7 km/h (4 Bft) 97,87 %
21.04.2020 18:18 20,8 C 21,7 C 18,3 C 39 % 1015,6 hPa 0,0 l/m 2 min 0 min 353 W/m 16,1 km/h (3 Bft) 97,87 %
21.04.2020 18:20 20,7 C 21,7 C 18,3 C 39 % 1015,6 hPa 0,0 l/m 2 min 0 min 350 W/m 16,1 km/h (3 Bft) 97,83 %
21.04.2020 18:22 20,7 C 21,7 C 17,8 C 39 % 1015,6 hPa 0,0 l/m 2 min 0 min 345 W/m 19,3 km/h (3 Bft) 97,87 %
21.04.2020 18:24 20,6 C 21,1 C 17,8 C 39 % 1015,6 hPa 0,0 l/m 2 min 0 min 337 W/m 22,5 km/h (4 Bft) 97,92 %
21.04.2020 18:26 20,6 C 21,1 C 17,8 C 39 % 1015,6 hPa 0,0 l/m 2 min 0 min 329 W/m 22,5 km/h (4 Bft) 97,87 %
21.04.2020 18:28 20,6 C 21,1 C 17,8 C 39 % 1015,6 hPa 0,0 l/m 2 min 0 min 322 W/m 19,3 km/h (3 Bft) 97,87 %
21.04.2020 18:30 20,5 C 21,1 C 17,8 C 39 % 1015,7 hPa 0,0 l/m 2 min 0 min 316 W/m 25,7 km/h (4 Bft) 95,74 %
21.04.2020 18:32 20,4 C 20,6 C 17,8 C 39 % 1015,6 hPa 0,0 l/m 2 min 0 min 309 W/m 16,1 km/h (3 Bft) 97,83 %
21.04.2020 18:34 20,3 C 20,6 C 17,8 C 39 % 1015,6 hPa 0,0 l/m 2 min 0 min 302 W/m 22,5 km/h (4 Bft) 97,87 %
21.04.2020 18:36 20,2 C 20,0 C 17,8 C 39 % 1015,6 hPa 0,0 l/m 2 min 0 min 297 W/m 19,3 km/h (3 Bft) 97,87 %
21.04.2020 18:38 20,2 C 19,4 C 17,8 C 39 % 1015,7 hPa 0,0 l/m 2 min 0 min 291 W/m 16,1 km/h (3 Bft) 97,87 %
21.04.2020 18:40 20,1 C 18,9 C 17,2 C 39 % 1015,7 hPa 0,0 l/m 2 min 0 min 282 W/m 16,1 km/h (3 Bft) 100,00 %
21.04.2020 18:42 20,0 C 18,9 C 17,2 C 39 % 1015,7 hPa 0,0 l/m 2 min 0 min 213 W/m 16,1 km/h (3 Bft) 100,00 %
21.04.2020 18:44 19,9 C 18,9 C 17,2 C 40 % 1015,7 hPa 0,0 l/m 0 min 0 min 80 W/m 16,1 km/h (3 Bft) 100,00 %
21.04.2020 18:46 19,8 C 18,9 C 17,2 C 40 % 1015,6 hPa 0,0 l/m 0 min 0 min 59 W/m 22,5 km/h (4 Bft) 100,00 %
21.04.2020 18:48 19,7 C 18,3 C 17,2 C 40 % 1015,6 hPa 0,0 l/m 0 min 0 min 57 W/m 19,3 km/h (3 Bft) 100,00 %
21.04.2020 18:50 19,7 C 18,3 C 17,2 C 40 % 1015,7 hPa 0,0 l/m 0 min 0 min 55 W/m 12,9 km/h (3 Bft) 100,00 %
21.04.2020 18:52 19,6 C 18,3 C 17,2 C 40 % 1015,7 hPa 0,0 l/m 0 min 0 min 54 W/m 32,2 km/h (5 Bft) 100,00 %
21.04.2020 18:54 19,5 C 18,3 C 17,2 C 40 % 1015,7 hPa 0,0 l/m 0 min 0 min 53 W/m 12,9 km/h (3 Bft) 100,00 %
21.04.2020 18:56 19,4 C 18,3 C 17,2 C 41 % 1015,8 hPa 0,0 l/m 0 min 0 min 53 W/m 16,1 km/h (3 Bft) 100,00 %
21.04.2020 18:58 19,4 C 18,3 C 17,2 C 40 % 1015,7 hPa 0,0 l/m 0 min 0 min 52 W/m 22,5 km/h (4 Bft) 100,00 %
21.04.2020 19:00 19,3 C 18,3 C 17,2 C 40 % 1015,7 hPa 0,0 l/m 0 min 0 min 51 W/m 19,3 km/h (3 Bft) 97,83 %
21.04.2020 19:02 19,3 C 18,3 C 17,2 C 41 % 1015,6 hPa 0,0 l/m 0 min 0 min 49 W/m 19,3 km/h (3 Bft) 95,74 %
21.04.2020 19:04 19,2 C 18,3 C 17,2 C 41 % 1015,8 hPa 0,0 l/m 0 min 0 min 49 W/m 35,4 km/h (5 Bft) 97,87 %
21.04.2020 19:06 19,2 C 18,3 C 17,2 C 41 % 1015,8 hPa 0,0 l/m 0 min 0 min 47 W/m 25,7 km/h (4 Bft) 97,87 %
21.04.2020 19:08 19,2 C 17,8 C 16,7 C 41 % 1015,8 hPa 0,0 l/m 0 min 0 min 47 W/m 16,1 km/h (3 Bft) 97,83 %
21.04.2020 19:10 19,1 C 17,8 C 16,7 C 42 % 1015,7 hPa 0,0 l/m 0 min 0 min 46 W/m 12,9 km/h (3 Bft) 97,87 %
21.04.2020 19:12 19,1 C 17,8 C 16,7 C 42 % 1015,8 hPa 0,0 l/m 0 min 0 min 46 W/m 12,9 km/h (3 Bft) 95,74 %
21.04.2020 19:14 19,0 C 17,8 C 16,7 C 42 % 1015,8 hPa 0,0 l/m 0 min 0 min 44 W/m 16,1 km/h (3 Bft) 97,83 %
21.04.2020 19:16 18,9 C 17,8 C 16,7 C 42 % 1015,8 hPa 0,0 l/m 0 min 0 min 44 W/m 12,9 km/h (3 Bft) 100,00 %
21.04.2020 19:18 18,9 C 17,8 C 16,7 C 42 % 1015,8 hPa 0,0 l/m 0 min 0 min 43 W/m 19,3 km/h (3 Bft) 97,87 %
21.04.2020 19:20 18,8 C 17,8 C 16,7 C 42 % 1015,8 hPa 0,0 l/m 0 min 0 min 42 W/m 19,3 km/h (3 Bft) 97,87 %
21.04.2020 19:22 18,8 C 17,8 C 16,7 C 42 % 1015,8 hPa 0,0 l/m 0 min 0 min 42 W/m 0,0 km/h (0 Bft) 97,87 %
21.04.2020 19:24 18,7 C 17,8 C 16,7 C 43 % 1015,8 hPa 0,0 l/m 0 min 0 min 40 W/m 0,0 km/h (0 Bft) 97,83 %
21.04.2020 19:26 18,7 C 17,8 C 16,7 C 43 % 1015,9 hPa 0,0 l/m 0 min 0 min 40 W/m 16,1 km/h (3 Bft) 97,87 %
21.04.2020 19:28 18,7 C 17,2 C 16,7 C 43 % 1016,0 hPa 0,0 l/m 0 min 0 min 39 W/m 19,3 km/h (3 Bft) 97,87 %
21.04.2020 19:30 18,6 C 17,2 C 16,1 C 43 % 1015,9 hPa 0,0 l/m 0 min 0 min 39 W/m 16,1 km/h (3 Bft) 97,87 %
21.04.2020 19:32 18,6 C 17,2 C 16,1 C 43 % 1016,0 hPa 0,0 l/m 0 min 0 min 37 W/m 9,7 km/h (2 Bft) 97,87 %
21.04.2020 19:34 18,6 C 17,2 C 16,1 C 43 % 1016,0 hPa 0,0 l/m 0 min 0 min 37 W/m 9,7 km/h (2 Bft) 97,87 %
21.04.2020 19:36 18,5 C 17,2 C 16,1 C 43 % 1016,0 hPa 0,0 l/m 0 min 0 min 35 W/m 12,9 km/h (3 Bft) 95,65 %
21.04.2020 19:38 18,4 C 17,2 C 16,1 C 44 % 1016,1 hPa 0,0 l/m 0 min 0 min 35 W/m 9,7 km/h (2 Bft) 97,87 %
21.04.2020 19:40 18,4 C 17,2 C 16,1 C 44 % 1016,1 hPa 0,0 l/m 0 min 0 min 33 W/m 12,9 km/h (3 Bft) 97,87 %
21.04.2020 19:42 18,4 C 17,2 C 16,1 C 44 % 1016,1 hPa 0,0 l/m 0 min 0 min 33 W/m 9,7 km/h (2 Bft) 97,87 %
21.04.2020 19:44 18,3 C 16,7 C 16,1 C 44 % 1016,1 hPa 0,0 l/m 0 min 0 min 33 W/m 9,7 km/h (2 Bft) 100,00 %
21.04.2020 19:46 18,3 C 16,7 C 15,6 C 44 % 1016,2 hPa 0,0 l/m 0 min 0 min 32 W/m 9,7 km/h (2 Bft) 97,87 %
21.04.2020 19:48 18,2 C 16,7 C 15,6 C 44 % 1016,2 hPa 0,0 l/m 0 min 0 min 30 W/m 9,7 km/h (2 Bft) 95,65 %
21.04.2020 19:50 18,2 C 16,7 C 16,1 C 43 % 1016,2 hPa 0,0 l/m 0 min 0 min 30 W/m 12,9 km/h (3 Bft) 97,87 %
21.04.2020 19:52 18,2 C 16,7 C 15,6 C 44 % 1016,3 hPa 0,0 l/m 0 min 0 min 29 W/m 6,4 km/h (2 Bft) 93,62 %
21.04.2020 19:54 18,1 C 16,7 C 15,6 C 44 % 1016,2 hPa 0,0 l/m 0 min 0 min 28 W/m 9,7 km/h (2 Bft) 93,62 %
21.04.2020 19:56 18,1 C 16,7 C 15,6 C 43 % 1016,2 hPa 0,0 l/m 0 min 0 min 26 W/m 16,1 km/h (3 Bft) 95,74 %
21.04.2020 19:58 18,0 C 16,7 C 15,6 C 42 % 1016,2 hPa 0,0 l/m 0 min 0 min 26 W/m 16,1 km/h (3 Bft) 95,74 %
21.04.2020 20:00 18,0 C 16,7 C 15,6 C 42 % 1016,3 hPa 0,0 l/m 0 min 0 min 25 W/m 12,9 km/h (3 Bft) 97,83 %
21.04.2020 20:02 17,9 C 16,7 C 16,1 C 42 % 1016,3 hPa 0,0 l/m 0 min 0 min 25 W/m 12,9 km/h (3 Bft) 97,87 %
21.04.2020 20:04 17,9 C 16,7 C 16,1 C 42 % 1016,2 hPa 0,0 l/m 0 min 0 min 23 W/m 12,9 km/h (3 Bft) 95,74 %
21.04.2020 20:06 17,9 C 16,7 C 15,6 C 43 % 1016,3 hPa 0,0 l/m 0 min 0 min 23 W/m 16,1 km/h (3 Bft) 97,87 %
21.04.2020 20:08 17,9 C 16,7 C 15,6 C 43 % 1016,3 hPa 0,0 l/m 0 min 0 min 21 W/m 9,7 km/h (2 Bft) 93,62 %
21.04.2020 20:10 17,8 C 16,7 C 15,6 C 42 % 1016,3 hPa 0,0 l/m 0 min 0 min 21 W/m 12,9 km/h (3 Bft) 95,65 %
21.04.2020 20:12 17,8 C 16,7 C 15,6 C 43 % 1016,4 hPa 0,0 l/m 0 min 0 min 19 W/m 6,4 km/h (2 Bft) 97,87 %
21.04.2020 20:14 17,8 C 16,7 C 15,6 C 43 % 1016,4 hPa 0,0 l/m 0 min 0 min 18 W/m 19,3 km/h (3 Bft) 95,74 %
21.04.2020 20:16 17,8 C 16,7 C 15,6 C 43 % 1016,4 hPa 0,0 l/m 0 min 0 min 17 W/m 9,7 km/h (2 Bft) 95,74 %
21.04.2020 20:18 17,7 C 16,7 C 15,6 C 43 % 1016,5 hPa 0,0 l/m 0 min 0 min 16 W/m 16,1 km/h (3 Bft) 93,62 %
21.04.2020 20:20 17,7 C 16,7 C 15,6 C 43 % 1016,5 hPa 0,0 l/m 0 min 0 min 15 W/m 12,9 km/h (3 Bft) 97,87 %
21.04.2020 20:22 17,7 C 16,7 C 15,6 C 43 % 1016,5 hPa 0,0 l/m 0 min 0 min 14 W/m 16,1 km/h (3 Bft) 93,48 %
21.04.2020 20:24 17,6 C 16,1 C 15,6 C 43 % 1016,5 hPa 0,0 l/m 0 min 0 min 12 W/m 12,9 km/h (3 Bft) 95,74 %
21.04.2020 20:26 17,6 C 16,1 C 15,0 C 43 % 1016,6 hPa 0,0 l/m 0 min 0 min 12 W/m 16,1 km/h (3 Bft) 95,74 %
21.04.2020 20:28 17,6 C 16,1 C 15,0 C 43 % 1016,6 hPa 0,0 l/m 0 min 0 min 11 W/m 12,9 km/h (3 Bft) 93,62 %
21.04.2020 20:30 17,5 C 16,1 C 15,0 C 43 % 1016,7 hPa 0,0 l/m 0 min 0 min 11 W/m 12,9 km/h (3 Bft) 93,62 %
21.04.2020 20:32 17,4 C 15,6 C 15,0 C 43 % 1016,7 hPa 0,0 l/m 0 min 0 min 9 W/m 12,9 km/h (3 Bft) 95,74 %
21.04.2020 20:34 17,4 C 15,6 C 15,0 C 43 % 1016,7 hPa 0,0 l/m 0 min 0 min 8 W/m 9,7 km/h (2 Bft) 95,65 %
21.04.2020 20:36 17,3 C 15,6 C 15,0 C 44 % 1016,8 hPa 0,0 l/m 0 min 0 min 7 W/m 9,7 km/h (2 Bft) 95,74 %
21.04.2020 20:38 17,3 C 15,6 C 15,0 C 43 % 1016,9 hPa 0,0 l/m 0 min 0 min 7 W/m 12,9 km/h (3 Bft) 93,62 %
21.04.2020 20:40 17,2 C 15,6 C 14,4 C 44 % 1016,9 hPa 0,0 l/m 0 min 0 min 5 W/m 16,1 km/h (3 Bft) 95,74 %
21.04.2020 20:42 17,1 C 15,6 C 14,4 C 44 % 1016,9 hPa 0,0 l/m 0 min 0 min 5 W/m 16,1 km/h (3 Bft) 97,87 %
21.04.2020 20:44 17,1 C 15,6 C 14,4 C 44 % 1016,9 hPa 0,0 l/m 0 min 0 min 2 W/m 12,9 km/h (3 Bft) 95,74 %
21.04.2020 20:46 17,0 C 15,6 C 15,0 C 44 % 1017,0 hPa 0,0 l/m 0 min 0 min 0 W/m 12,9 km/h (3 Bft) 97,83 %
21.04.2020 20:48 16,9 C 15,6 C 14,4 C 44 % 1017,0 hPa 0,0 l/m 0 min 0 min 0 W/m 3,2 km/h (1 Bft) 97,96 %
21.04.2020 20:50 16,9 C 15,6 C 14,4 C 44 % 1017,0 hPa 0,0 l/m 0 min 0 min 0 W/m 12,9 km/h (3 Bft) 95,74 %
21.04.2020 20:52 16,8 C 15,6 C 14,4 C 44 % 1017,1 hPa 0,0 l/m 0 min 0 min 0 W/m 12,9 km/h (3 Bft) 97,87 %
21.04.2020 20:54 16,8 C 15,6 C 14,4 C 44 % 1017,1 hPa 0,0 l/m 0 min 0 min 0 W/m 9,7 km/h (2 Bft) 97,87 %
21.04.2020 20:56 16,7 C 15,0 C 14,4 C 44 % 1017,1 hPa 0,0 l/m 0 min 0 min 0 W/m 9,7 km/h (2 Bft) 97,83 %
21.04.2020 20:58 16,7 C 15,0 C 14,4 C 45 % 1017,2 hPa 0,0 l/m 0 min 0 min 0 W/m 9,7 km/h (2 Bft) 97,87 %
21.04.2020 21:00 16,6 C 15,0 C 14,4 C 45 % 1017,2 hPa 0,0 l/m 0 min 0 min 0 W/m 9,7 km/h (2 Bft) 97,87 %
21.04.2020 21:02 16,6 C 15,0 C 13,9 C 45 % 1017,3 hPa 0,0 l/m 0 min 0 min 0 W/m 9,7 km/h (2 Bft) 100,00 %
21.04.2020 21:04 16,5 C 15,0 C 13,9 C 45 % 1017,3 hPa 0,0 l/m 0 min 0 min 0 W/m 6,4 km/h (2 Bft) 100,00 %
21.04.2020 21:06 16,4 C 15,0 C 13,9 C 45 % 1017,4 hPa 0,0 l/m 0 min 0 min 0 W/m 9,7 km/h (2 Bft) 100,00 %
21.04.2020 21:08 16,4 C 15,0 C 13,9 C 45 % 1017,4 hPa 0,0 l/m 0 min 0 min 0 W/m 12,9 km/h (3 Bft) 100,00 %
21.04.2020 21:10 16,4 C 14,4 C 13,9 C 46 % 1017,5 hPa 0,0 l/m 0 min 0 min 0 W/m 9,7 km/h (2 Bft) 100,00 %
21.04.2020 21:12 16,3 C 14,4 C 13,9 C 45 % 1017,5 hPa 0,0 l/m 0 min 0 min 0 W/m 9,7 km/h (2 Bft) 100,00 %
21.04.2020 21:14 16,3 C 14,4 C 13,9 C 46 % 1017,5 hPa 0,0 l/m 0 min 0 min 0 W/m 6,4 km/h (2 Bft) 100,00 %
21.04.2020 21:16 16,2 C 14,4 C 13,3 C 46 % 1017,5 hPa 0,0 l/m 0 min 0 min 0 W/m 3,2 km/h (1 Bft) 100,00 %
21.04.2020 21:18 16,2 C 14,4 C 13,3 C 46 % 1017,6 hPa 0,0 l/m 0 min 0 min 0 W/m 9,7 km/h (2 Bft) 100,00 %
21.04.2020 21:20 16,1 C 14,4 C 13,3 C 46 % 1017,5 hPa 0,0 l/m 0 min 0 min 0 W/m 6,4 km/h (2 Bft) 100,00 %
21.04.2020 21:22 16,1 C 14,4 C 13,3 C 46 % 1017,5 hPa 0,0 l/m 0 min 0 min 0 W/m 9,7 km/h (2 Bft) 100,00 %
21.04.2020 21:24 15,9 C 14,4 C 13,3 C 46 % 1017,5 hPa 0,0 l/m 0 min 0 min 0 W/m 12,9 km/h (3 Bft) 100,00 %
21.04.2020 21:26 15,9 C 14,4 C 13,3 C 47 % 1017,6 hPa 0,0 l/m 0 min 0 min 0 W/m 6,4 km/h (2 Bft) 100,00 %
21.04.2020 21:28 15,8 C 14,4 C 13,3 C 46 % 1017,6 hPa 0,0 l/m 0 min 0 min 0 W/m 6,4 km/h (2 Bft) 100,00 %
21.04.2020 21:30 15,8 C 14,4 C 13,3 C 47 % 1017,7 hPa 0,0 l/m 0 min 0 min 0 W/m 9,7 km/h (2 Bft) 97,87 %
21.04.2020 21:32 15,8 C 14,4 C 13,3 C 47 % 1017,7 hPa 0,0 l/m 0 min 0 min 0 W/m 9,7 km/h (2 Bft) 100,00 %
21.04.2020 21:34 15,7 C 14,4 C 13,3 C 47 % 1017,8 hPa 0,0 l/m 0 min 0 min 0 W/m 3,2 km/h (1 Bft) 100,00 %
21.04.2020 21:36 15,7 C 14,4 C 13,3 C 47 % 1017,8 hPa 0,0 l/m 0 min 0 min 0 W/m 9,7 km/h (2 Bft) 100,00 %
21.04.2020 21:38 15,7 C 14,4 C 13,3 C 47 % 1017,8 hPa 0,0 l/m 0 min 0 min 0 W/m 9,7 km/h (2 Bft) 100,00 %
21.04.2020 21:40 15,6 C 14,4 C 13,3 C 47 % 1017,9 hPa 0,0 l/m 0 min 0 min 0 W/m 6,4 km/h (2 Bft) 100,00 %
21.04.2020 21:42 15,6 C 13,9 C 13,3 C 48 % 1017,9 hPa 0,0 l/m 0 min 0 min 0 W/m 6,4 km/h (2 Bft) 100,00 %
21.04.2020 21:44 15,6 C 13,9 C 13,3 C 48 % 1017,9 hPa 0,0 l/m 0 min 0 min 0 W/m 6,4 km/h (2 Bft) 100,00 %
21.04.2020 21:46 15,5 C 13,9 C 12,8 C 48 % 1017,9 hPa 0,0 l/m 0 min 0 min 0 W/m 6,4 km/h (2 Bft) 97,87 %
21.04.2020 21:48 15,5 C 13,9 C 12,8 C 48 % 1017,9 hPa 0,0 l/m 0 min 0 min 0 W/m 9,7 km/h (2 Bft) 100,00 %
21.04.2020 21:50 15,4 C 13,9 C 12,8 C 48 % 1017,9 hPa 0,0 l/m 0 min 0 min 0 W/m 0,0 km/h (0 Bft) 97,87 %
21.04.2020 21:52 15,3 C 13,9 C 12,8 C 48 % 1018,0 hPa 0,0 l/m 0 min 0 min 0 W/m 3,2 km/h (1 Bft) 100,00 %
21.04.2020 21:54 15,3 C 13,9 C 12,8 C 48 % 1017,9 hPa 0,0 l/m 0 min 0 min 0 W/m 9,7 km/h (2 Bft) 100,00 %
21.04.2020 21:56 15,2 C 13,9 C 12,8 C 48 % 1017,9 hPa 0,0 l/m 0 min 0 min 0 W/m 9,7 km/h (2 Bft) 100,00 %
21.04.2020 21:58 15,2 C 13,9 C 12,8 C 48 % 1018,0 hPa 0,0 l/m 0 min 0 min 0 W/m 3,2 km/h (1 Bft) 100,00 %
21.04.2020 22:00 15,2 C 13,9 C 12,8 C 49 % 1018,0 hPa 0,0 l/m 0 min 0 min 0 W/m 3,2 km/h (1 Bft) 100,00 %
21.04.2020 22:02 15,1 C 13,9 C 12,8 C 48 % 1018,0 hPa 0,0 l/m 0 min 0 min 0 W/m 3,2 km/h (1 Bft) 97,87 %
21.04.2020 22:04 15,1 C 13,9 C 12,8 C 49 % 1018,1 hPa 0,0 l/m 0 min 0 min 0 W/m 3,2 km/h (1 Bft) 97,87 %
21.04.2020 22:06 15,1 C 13,3 C 12,8 C 49 % 1018,0 hPa 0,0 l/m 0 min 0 min 0 W/m 0,0 km/h (0 Bft) 100,00 %
21.04.2020 22:08 15,0 C 13,3 C 12,2 C 49 % 1018,1 hPa 0,0 l/m 0 min 0 min 0 W/m 6,4 km/h (2 Bft) 100,00 %
21.04.2020 22:10 14,9 C 13,3 C 12,2 C 49 % 1018,2 hPa 0,0 l/m 0 min 0 min 0 W/m 6,4 km/h (2 Bft) 100,00 %
21.04.2020 22:12 14,9 C 13,3 C 12,2 C 49 % 1018,2 hPa 0,0 l/m 0 min 0 min 0 W/m 0,0 km/h (0 Bft) 100,00 %
21.04.2020 22:14 14,9 C 13,3 C 12,2 C 50 % 1018,2 hPa 0,0 l/m 0 min 0 min 0 W/m 0,0 km/h (0 Bft) 100,00 %
21.04.2020 22:16 14,8 C 13,3 C 12,2 C 49 % 1018,2 hPa 0,0 l/m 0 min 0 min 0 W/m 0,0 km/h (0 Bft) 100,00 %
21.04.2020 22:18 14,8 C 13,3 C 12,2 C 49 % 1018,3 hPa 0,0 l/m 0 min 0 min 0 W/m 6,4 km/h (2 Bft) 100,00 %
21.04.2020 22:20 14,7 C 13,3 C 12,2 C 49 % 1018,2 hPa 0,0 l/m 0 min 0 min 0 W/m 6,4 km/h (2 Bft) 100,00 %
21.04.2020 22:22 14,7 C 12,8 C 12,2 C 50 % 1018,3 hPa 0,0 l/m 0 min 0 min 0 W/m 3,2 km/h (1 Bft) 97,87 %
21.04.2020 22:24 14,7 C 12,8 C 12,2 C 50 % 1018,3 hPa 0,0 l/m 0 min 0 min 0 W/m 6,4 km/h (2 Bft) 100,00 %
21.04.2020 22:26 14,6 C 13,3 C 12,2 C 50 % 1018,3 hPa 0,0 l/m 0 min 0 min 0 W/m 3,2 km/h (1 Bft) 100,00 %
21.04.2020 22:28 14,6 C 13,3 C 12,2 C 50 % 1018,3 hPa 0,0 l/m 0 min 0 min 0 W/m 6,4 km/h (2 Bft) 97,87 %
21.04.2020 22:30 14,5 C 13,3 C 12,2 C 50 % 1018,3 hPa 0,0 l/m 0 min 0 min 0 W/m 6,4 km/h (2 Bft) 100,00 %
21.04.2020 22:32 14,4 C 13,3 C 12,2 C 50 % 1018,3 hPa 0,0 l/m 0 min 0 min 0 W/m 12,9 km/h (3 Bft) 95,74 %
21.04.2020 22:34 14,4 C 12,8 C 12,2 C 50 % 1018,3 hPa 0,0 l/m 0 min 0 min 0 W/m 9,7 km/h (2 Bft) 97,87 %
21.04.2020 22:36 14,3 C 12,8 C 12,2 C 50 % 1018,3 hPa 0,0 l/m 0 min 0 min 0 W/m 3,2 km/h (1 Bft) 93,62 %
21.04.2020 22:38 14,3 C 12,8 C 12,2 C 50 % 1018,3 hPa 0,0 l/m 0 min 0 min 0 W/m 6,4 km/h (2 Bft) 97,87 %
21.04.2020 22:40 14,3 C 12,2 C 11,7 C 51 % 1018,3 hPa 0,0 l/m 0 min 0 min 0 W/m 0,0 km/h (0 Bft) 97,87 %
21.04.2020 22:42 14,3 C 12,2 C 11,7 C 51 % 1018,3 hPa 0,0 l/m 0 min 0 min 0 W/m 0,0 km/h (0 Bft) 95,65 %
21.04.2020 22:44 14,3 C 12,2 C 11,7 C 51 % 1018,3 hPa 0,0 l/m 0 min 0 min 0 W/m 3,2 km/h (1 Bft) 95,74 %
21.04.2020 22:46 14,3 C 12,2 C 11,1 C 51 % 1018,3 hPa 0,0 l/m 0 min 0 min 0 W/m 0,0 km/h (0 Bft) 91,49 %
21.04.2020 22:48 14,3 C 11,7 C 11,1 C 51 % 1018,3 hPa 0,0 l/m 0 min 0 min 0 W/m 0,0 km/h (0 Bft) 93,62 %
21.04.2020 22:50 14,2 C 11,7 C 11,1 C 52 % 1018,3 hPa 0,0 l/m 0 min 0 min 0 W/m 3,2 km/h (1 Bft) 93,62 %
21.04.2020 22:52 14,1 C 11,7 C 11,1 C 52 % 1018,3 hPa 0,0 l/m 0 min 0 min 0 W/m 0,0 km/h (0 Bft) 91,49 %
21.04.2020 22:54 14,0 C 11,7 C 11,1 C 52 % 1018,3 hPa 0,0 l/m 0 min 0 min 0 W/m 0,0 km/h (0 Bft) 93,48 %
21.04.2020 22:56 13,9 C 11,1 C 10,6 C 52 % 1018,3 hPa 0,0 l/m 0 min 0 min 0 W/m 3,2 km/h (1 Bft) 91,49 %
21.04.2020 22:58 13,8 C 11,1 C 10,6 C 52 % 1018,3 hPa 0,0 l/m 0 min 0 min 0 W/m 3,2 km/h (1 Bft) 89,36 %
21.04.2020 23:00 13,7 C 11,1 C 10,6 C 53 % 1018,3 hPa 0,0 l/m 0 min 0 min 0 W/m 0,0 km/h (0 Bft) 93,62 %
21.04.2020 23:02 13,7 C 11,1 C 10,6 C 53 % 1018,3 hPa 0,0 l/m 0 min 0 min 0 W/m 3,2 km/h (1 Bft) 93,62 %
21.04.2020 23:04 13,6 C 11,1 C 10,6 C 53 % 1018,3 hPa 0,0 l/m 0 min 0 min 0 W/m 6,4 km/h (2 Bft) 91,30 %
21.04.2020 23:06 13,5 C 11,1 C 10,6 C 53 % 1018,3 hPa 0,0 l/m 0 min 0 min 0 W/m 3,2 km/h (1 Bft) 93,62 %
21.04.2020 23:08 13,4 C 11,1 C 10,6 C 53 % 1018,3 hPa 0,0 l/m 0 min 0 min 0 W/m 3,2 km/h (1 Bft) 93,62 %
21.04.2020 23:10 13,3 C 11,1 C 10,6 C 54 % 1018,3 hPa 0,0 l/m 0 min 0 min 0 W/m 6,4 km/h (2 Bft) 91,49 %
21.04.2020 23:12 13,2 C 11,1 C 10,6 C 54 % 1018,3 hPa 0,0 l/m 0 min 0 min 0 W/m 9,7 km/h (2 Bft) 95,74 %
21.04.2020 23:14 13,1 C 11,1 C 10,6 C 55 % 1018,3 hPa 0,0 l/m 0 min 0 min 0 W/m 6,4 km/h (2 Bft) 91,49 %
21.04.2020 23:16 13,1 C 11,1 C 10,6 C 55 % 1018,3 hPa 0,0 l/m 0 min 0 min 0 W/m 6,4 km/h (2 Bft) 85,11 %
21.04.2020 23:18 12,9 C 11,1 C 10,6 C 55 % 1018,3 hPa 0,0 l/m 0 min 0 min 0 W/m 6,4 km/h (2 Bft) 60,87 %
21.04.2020 23:20 12,9 C 11,1 C 10,6 C 55 % 1018,3 hPa 0,0 l/m 0 min 0 min 0 W/m 6,4 km/h (2 Bft) 93,62 %
21.04.2020 23:22 12,8 C 11,1 C 10,6 C 55 % 1018,3 hPa 0,0 l/m 0 min 0 min 0 W/m 3,2 km/h (1 Bft) 93,62 %
21.04.2020 23:24 12,8 C 11,1 C 10,0 C 55 % 1018,3 hPa 0,0 l/m 0 min 0 min 0 W/m 0,0 km/h (0 Bft) 95,74 %
21.04.2020 23:26 12,7 C 11,1 C 10,0 C 56 % 1018,3 hPa 0,0 l/m 0 min 0 min 0 W/m 6,4 km/h (2 Bft) 95,74 %
21.04.2020 23:28 12,6 C 11,1 C 10,0 C 56 % 1018,3 hPa 0,0 l/m 0 min 0 min 0 W/m 3,2 km/h (1 Bft) 95,74 %
21.04.2020 23:30 12,6 C 11,1 C 10,0 C 56 % 1018,3 hPa 0,0 l/m 0 min 0 min 0 W/m 6,4 km/h (2 Bft) 95,65 %
21.04.2020 23:32 12,5 C 11,1 C 10,0 C 56 % 1018,3 hPa 0,0 l/m 0 min 0 min 0 W/m 6,4 km/h (2 Bft) 93,62 %
21.04.2020 23:34 12,5 C 11,1 C 10,0 C 56 % 1018,3 hPa 0,0 l/m 0 min 0 min 0 W/m 6,4 km/h (2 Bft) 97,87 %
21.04.2020 23:36 12,4 C 11,1 C 10,6 C 56 % 1018,4 hPa 0,0 l/m 0 min 0 min 0 W/m 6,4 km/h (2 Bft) 95,74 %
21.04.2020 23:38 12,4 C 11,1 C 10,0 C 57 % 1018,3 hPa 0,0 l/m 0 min 0 min 0 W/m 3,2 km/h (1 Bft) 97,87 %
21.04.2020 23:40 12,3 C 10,6 C 10,0 C 57 % 1018,4 hPa 0,0 l/m 0 min 0 min 0 W/m 0,0 km/h (0 Bft) 95,65 %
21.04.2020 23:42 12,3 C 10,6 C 10,0 C 57 % 1018,4 hPa 0,0 l/m 0 min 0 min 0 W/m 0,0 km/h (0 Bft) 97,87 %
21.04.2020 23:44 12,3 C 11,1 C 10,0 C 57 % 1018,4 hPa 0,0 l/m 0 min 0 min 0 W/m 0,0 km/h (0 Bft) 100,00 %
21.04.2020 23:46 12,2 C 11,1 C 10,0 C 57 % 1018,4 hPa 0,0 l/m 0 min 0 min 0 W/m 0,0 km/h (0 Bft) 100,00 %
21.04.2020 23:48 12,2 C 11,1 C 10,0 C 57 % 1018,4 hPa 0,0 l/m 0 min 0 min 0 W/m 3,2 km/h (1 Bft) 97,87 %
21.04.2020 23:50 12,2 C 11,1 C 10,0 C 57 % 1018,4 hPa 0,0 l/m 0 min 0 min 0 W/m 6,4 km/h (2 Bft) 100,00 %
21.04.2020 23:52 12,2 C 11,1 C 10,0 C 57 % 1018,5 hPa 0,0 l/m 0 min 0 min 0 W/m 3,2 km/h (1 Bft) 97,83 %
21.04.2020 23:54 12,1 C 10,6 C 10,0 C 57 % 1018,5 hPa 0,0 l/m 0 min 0 min 0 W/m 3,2 km/h (1 Bft) 100,00 %
21.04.2020 23:56 12,1 C 10,6 C 10,0 C 58 % 1018,4 hPa 0,0 l/m 0 min 0 min 0 W/m 3,2 km/h (1 Bft) 100,00 %
21.04.2020 23:58 12,1 C 10,6 C 10,0 C 58 % 1018,5 hPa 0,0 l/m 0 min 0 min 0 W/m 6,4 km/h (2 Bft) 100,00 %
_ Min-Zeit 05:46 05:16 05:08 16:32 16:58 - - - - 00:00 03:38
Minimum _ 7,7 C 6,7 C 6,1 C 37 % 1015,4 hPa - - - - 0,0 km/h (0 Bft) 45,95 %
_ Max-Zeit 16:12 14:42 13:58 07:32 00:38 00:00 12:08 00:00 13:52 17:26 00:30
Maximum _ 21,4 C 25,6 C 27,8 C 68 % 1018,6 hPa 0,0 l/m 4 min 0 min 880 W/m 45,1 km/h
NO (6 Bft)
100,00 %
Durchschnitt _ 14,3 C 15,1 C 13,9 C 52 % 1017,3 hPa #0,0 l/m #9:56 h #0 min. 473 W/m 12,7 km/h (3 Bft) 97,28 %
© 2020 W. Hausmann